AEA64 MMUN-LEMD
Flight info
| Callsign | AEA64 |
|---|---|
| Flight time | N/A |
| Altitude | 37000 |
| Route | NUDAL1A NUDAL UV106 PODON UG765 MAXIM Y262 ZFP DCT CNNOR/M084F370 M328 ANTIG DCT BALOO DCT 35N060W 37N050W/M084F390 3830N04000W 40N030W 41N020W DCT DETOX/N0483F400 DCT PRT DCT CANAR DCT ADORO L155 ZMR |
| Aircraft | B789/H-SDE1E2E3FGHIJ2J3J4J5M1RWXY/LB1D1 |
Departure
| Time | 2026-04-29 05:14 |
|---|---|
| Airport | Cancún International Airport (MMUN) |
Arrival
| Time | N/A |
|---|---|
| Airport | Adolfo Suárez Madrid–Barajas Airport (LEMD) |
| Time | Latitude | Longitude | Altitude | Speed | Heading |
|---|---|---|---|---|---|
| 2026-04-29 04:38 | 21.04219 | -86.88087 | 0 ft | 0 kts | 124° |
| 2026-04-29 05:04 | 21.04220 | -86.88089 | 0 ft | 2 kts | 124° |
| 2026-04-29 05:04 | 21.04234 | -86.88112 | 27 ft | 4 kts | 118° |
| 2026-04-29 05:04 | 21.04245 | -86.88134 | 25 ft | 4 kts | 142° |
| 2026-04-29 05:05 | 21.04262 | -86.88142 | 31 ft | 4 kts | 179° |
| 2026-04-29 05:05 | 21.04283 | -86.88136 | 33 ft | 4 kts | 212° |
| 2026-04-29 05:05 | 21.04298 | -86.88125 | 32 ft | 0 kts | 214° |
| 2026-04-29 05:08 | 21.04297 | -86.88126 | 32 ft | 0 kts | 214° |
| 2026-04-29 05:08 | 21.04281 | -86.88137 | 33 ft | 5 kts | 213° |
| 2026-04-29 05:08 | 21.04238 | -86.88167 | 35 ft | 9 kts | 213° |
| 2026-04-29 05:08 | 21.04197 | -86.88225 | 35 ft | 10 kts | 268° |
| 2026-04-29 05:09 | 21.04230 | -86.88303 | 36 ft | 13 kts | 305° |
| 2026-04-29 05:09 | 21.04289 | -86.88396 | 36 ft | 17 kts | 304° |
| 2026-04-29 05:09 | 21.04364 | -86.88515 | 36 ft | 21 kts | 303° |
| 2026-04-29 05:09 | 21.04450 | -86.88653 | 36 ft | 24 kts | 304° |
| 2026-04-29 05:10 | 21.04550 | -86.88812 | 35 ft | 27 kts | 303° |
| 2026-04-29 05:10 | 21.04635 | -86.88959 | 35 ft | 20 kts | 288° |
| 2026-04-29 05:10 | 21.04598 | -86.89035 | 36 ft | 10 kts | 218° |
| 2026-04-29 05:10 | 21.04544 | -86.89067 | 37 ft | 6 kts | 192° |
| 2026-04-29 05:11 | 21.04520 | -86.89059 | 37 ft | 3 kts | 149° |
| 2026-04-29 05:11 | 21.04505 | -86.89046 | 37 ft | 3 kts | 140° |
| 2026-04-29 05:11 | 21.04493 | -86.89032 | 38 ft | 0 kts | 127° |
| 2026-04-29 05:11 | 21.04492 | -86.89030 | 38 ft | 0 kts | 126° |
| 2026-04-29 05:12 | 21.04491 | -86.89029 | 38 ft | 0 kts | 126° |
| 2026-04-29 05:12 | 21.04491 | -86.89028 | 38 ft | 0 kts | 126° |
| 2026-04-29 05:13 | 21.04489 | -86.89026 | 38 ft | 0 kts | 126° |
| 2026-04-29 05:13 | 21.04483 | -86.89017 | 36 ft | 5 kts | 126° |
| 2026-04-29 05:13 | 21.04372 | -86.88837 | 39 ft | 60 kts | 123° |
| 2026-04-29 05:13 | 21.04014 | -86.88271 | 39 ft | 122 kts | 126° |
| 2026-04-29 05:14 | 21.03449 | -86.87367 | 41 ft | 173 kts | 124° |
| 2026-04-29 05:14 | 21.02752 | -86.86204 | 475 ft | 182 kts | 117° |
| 2026-04-29 05:14 | 21.02148 | -86.84973 | 1028 ft | 194 kts | 117° |
| 2026-04-29 05:14 | 21.01566 | -86.83639 | 1620 ft | 200 kts | 115° |
| 2026-04-29 05:15 | 21.00921 | -86.82277 | 2031 ft | 213 kts | 119° |
| 2026-04-29 05:15 | 21.00149 | -86.80835 | 2273 ft | 236 kts | 121° |
| 2026-04-29 05:15 | 20.99291 | -86.79254 | 2685 ft | 254 kts | 120° |
| 2026-04-29 05:15 | 20.98400 | -86.77582 | 3348 ft | 261 kts | 120° |
| 2026-04-29 05:16 | 20.97496 | -86.75873 | 4057 ft | 267 kts | 120° |
| 2026-04-29 05:16 | 20.96566 | -86.74118 | 4573 ft | 272 kts | 120° |
| 2026-04-29 05:16 | 20.96001 | -86.72188 | 4776 ft | 279 kts | 91° |
| 2026-04-29 05:16 | 20.96304 | -86.70165 | 5568 ft | 273 kts | 78° |
| 2026-04-29 05:17 | 20.96685 | -86.68176 | 6369 ft | 274 kts | 78° |
| 2026-04-29 05:17 | 20.97060 | -86.66188 | 7069 ft | 277 kts | 79° |
| 2026-04-29 05:17 | 20.97439 | -86.64155 | 7763 ft | 280 kts | 79° |
| 2026-04-29 05:17 | 20.97823 | -86.62098 | 8443 ft | 283 kts | 79° |
| 2026-04-29 05:18 | 20.98216 | -86.60021 | 9112 ft | 286 kts | 78° |
| 2026-04-29 05:18 | 20.98871 | -86.57988 | 9680 ft | 290 kts | 67° |
| 2026-04-29 05:18 | 20.99594 | -86.55963 | 10294 ft | 294 kts | 70° |
| 2026-04-29 05:18 | 21.00300 | -86.53846 | 10615 ft | 310 kts | 70° |
| 2026-04-29 05:19 | 21.01061 | -86.51625 | 10917 ft | 325 kts | 70° |
| 2026-04-29 05:19 | 21.01876 | -86.49307 | 11267 ft | 339 kts | 69° |
| 2026-04-29 05:19 | 21.02714 | -86.46916 | 11824 ft | 346 kts | 70° |
| 2026-04-29 05:19 | 21.03553 | -86.44491 | 12462 ft | 349 kts | 70° |
| 2026-04-29 05:20 | 21.04399 | -86.42044 | 13078 ft | 353 kts | 70° |
| 2026-04-29 05:20 | 21.05259 | -86.39564 | 13696 ft | 356 kts | 70° |
| 2026-04-29 05:20 | 21.06128 | -86.37065 | 14304 ft | 360 kts | 70° |
| 2026-04-29 05:20 | 21.07004 | -86.34535 | 14899 ft | 363 kts | 70° |
| 2026-04-29 05:21 | 21.07886 | -86.31987 | 15485 ft | 367 kts | 70° |
| 2026-04-29 05:21 | 21.08764 | -86.29448 | 16055 ft | 370 kts | 70° |
| 2026-04-29 05:21 | 21.09662 | -86.26854 | 16603 ft | 373 kts | 70° |
| 2026-04-29 05:21 | 21.10271 | -86.25092 | 16982 ft | 375 kts | 70° |
| 2026-04-29 05:22 | 21.11193 | -86.22424 | 17536 ft | 379 kts | 70° |
| 2026-04-29 05:22 | 21.12110 | -86.19769 | 18071 ft | 382 kts | 70° |
| 2026-04-29 05:22 | 21.13037 | -86.17085 | 18597 ft | 385 kts | 70° |
| 2026-04-29 05:22 | 21.13970 | -86.14380 | 19115 ft | 388 kts | 70° |
| 2026-04-29 05:23 | 21.14908 | -86.11659 | 19622 ft | 391 kts | 70° |
| 2026-04-29 05:23 | 21.15534 | -86.09843 | 19948 ft | 393 kts | 70° |
| 2026-04-29 05:23 | 21.16483 | -86.07087 | 20434 ft | 396 kts | 70° |
| 2026-04-29 05:23 | 21.17439 | -86.04309 | 20913 ft | 399 kts | 70° |
| 2026-04-29 05:24 | 21.18400 | -86.01517 | 21379 ft | 402 kts | 70° |
| 2026-04-29 05:24 | 21.19352 | -85.98693 | 21825 ft | 404 kts | 72° |
| 2026-04-29 05:24 | 21.20176 | -85.94777 | 22359 ft | 408 kts | 79° |
| 2026-04-29 05:24 | 21.20526 | -85.92759 | 22676 ft | 410 kts | 79° |
| 2026-04-29 05:25 | 21.21067 | -85.89749 | 23086 ft | 412 kts | 79° |
| 2026-04-29 05:25 | 21.21656 | -85.86731 | 23503 ft | 415 kts | 78° |
| 2026-04-29 05:25 | 21.22253 | -85.83695 | 23912 ft | 418 kts | 78° |
| 2026-04-29 05:25 | 21.22829 | -85.80637 | 24297 ft | 420 kts | 79° |
| 2026-04-29 05:26 | 21.23394 | -85.77590 | 24694 ft | 423 kts | 79° |
| 2026-04-29 05:26 | 21.23981 | -85.74491 | 25077 ft | 425 kts | 78° |
| 2026-04-29 05:26 | 21.24577 | -85.71369 | 25453 ft | 428 kts | 78° |
| 2026-04-29 05:26 | 21.25171 | -85.68234 | 25828 ft | 430 kts | 79° |
| 2026-04-29 05:27 | 21.25801 | -85.65082 | 26161 ft | 433 kts | 75° |
| 2026-04-29 05:27 | 21.28747 | -85.59459 | 26812 ft | 438 kts | 47° |
| 2026-04-29 05:27 | 21.30968 | -85.57215 | 27175 ft | 440 kts | 40° |
| 2026-04-29 05:28 | 21.33306 | -85.55154 | 27514 ft | 442 kts | 38° |
| 2026-04-29 05:28 | 21.35693 | -85.53063 | 27832 ft | 444 kts | 41° |
| 2026-04-29 05:28 | 21.37975 | -85.50802 | 28143 ft | 447 kts | 44° |
| 2026-04-29 05:28 | 21.40211 | -85.48474 | 28466 ft | 449 kts | 43° |
| 2026-04-29 05:29 | 21.42524 | -85.46209 | 28774 ft | 451 kts | 41° |
| 2026-04-29 05:29 | 21.44889 | -85.43982 | 29095 ft | 453 kts | 41° |
| 2026-04-29 05:29 | 21.47238 | -85.41709 | 29399 ft | 456 kts | 43° |
| 2026-04-29 05:29 | 21.49567 | -85.39388 | 29705 ft | 458 kts | 43° |
| 2026-04-29 05:30 | 21.51923 | -85.37062 | 30018 ft | 460 kts | 42° |
| 2026-04-29 05:30 | 21.54305 | -85.34753 | 30297 ft | 462 kts | 42° |
| 2026-04-29 05:30 | 21.56695 | -85.32430 | 30587 ft | 464 kts | 42° |
| 2026-04-29 05:30 | 21.59084 | -85.30082 | 30875 ft | 466 kts | 43° |
| 2026-04-29 05:31 | 21.61482 | -85.27721 | 31165 ft | 469 kts | 42° |
| 2026-04-29 05:31 | 21.63894 | -85.25359 | 31447 ft | 471 kts | 42° |
| 2026-04-29 05:31 | 21.66321 | -85.22986 | 31717 ft | 473 kts | 42° |
| 2026-04-29 05:31 | 21.68727 | -85.20626 | 31980 ft | 475 kts | 42° |
| 2026-04-29 05:32 | 21.71168 | -85.18226 | 32255 ft | 477 kts | 42° |
| 2026-04-29 05:32 | 21.73627 | -85.15809 | 32524 ft | 479 kts | 42° |
| 2026-04-29 05:32 | 21.76093 | -85.13389 | 32788 ft | 481 kts | 42° |
| 2026-04-29 05:32 | 21.78573 | -85.10951 | 33038 ft | 483 kts | 42° |
| 2026-04-29 05:33 | 21.81060 | -85.08504 | 33304 ft | 485 kts | 42° |
| 2026-04-29 05:33 | 21.83554 | -85.06050 | 33564 ft | 487 kts | 42° |
| 2026-04-29 05:33 | 21.86058 | -85.03585 | 33812 ft | 489 kts | 42° |
| 2026-04-29 05:33 | 21.88522 | -85.01159 | 34057 ft | 491 kts | 42° |
| 2026-04-29 05:34 | 21.91010 | -84.98706 | 34293 ft | 493 kts | 42° |
| 2026-04-29 05:34 | 21.93536 | -84.96216 | 34558 ft | 494 kts | 42° |
| 2026-04-29 05:34 | 21.96071 | -84.93715 | 34871 ft | 494 kts | 42° |
| 2026-04-29 05:34 | 21.98610 | -84.91209 | 35196 ft | 494 kts | 42° |
| 2026-04-29 05:35 | 22.01142 | -84.88709 | 35526 ft | 493 kts | 42° |
| 2026-04-29 05:35 | 22.03676 | -84.86205 | 35840 ft | 493 kts | 42° |
| 2026-04-29 05:35 | 22.06202 | -84.83708 | 36154 ft | 492 kts | 43° |
| 2026-04-29 05:35 | 22.08724 | -84.81214 | 36445 ft | 492 kts | 43° |
| 2026-04-29 05:36 | 22.11246 | -84.78719 | 36721 ft | 492 kts | 43° |
| 2026-04-29 05:36 | 22.13770 | -84.76220 | 36913 ft | 494 kts | 43° |
| 2026-04-29 05:36 | 22.18825 | -84.71211 | 36993 ft | 496 kts | 43° |
| 2026-04-29 05:37 | 22.23866 | -84.66212 | 36993 ft | 490 kts | 43° |
| 2026-04-29 05:37 | 22.28888 | -84.61227 | 36995 ft | 490 kts | 43° |
| 2026-04-29 05:38 | 22.33903 | -84.56243 | 36994 ft | 490 kts | 43° |
| 2026-04-29 05:38 | 22.38918 | -84.51253 | 36992 ft | 490 kts | 43° |
| 2026-04-29 05:39 | 22.43935 | -84.46258 | 36995 ft | 490 kts | 43° |
| 2026-04-29 05:39 | 22.48952 | -84.41257 | 36995 ft | 491 kts | 43° |
| 2026-04-29 05:40 | 22.53926 | -84.36294 | 36996 ft | 491 kts | 43° |
| 2026-04-29 05:40 | 22.58944 | -84.31281 | 36997 ft | 491 kts | 43° |
| 2026-04-29 05:41 | 22.63928 | -84.26297 | 36999 ft | 491 kts | 43° |
| 2026-04-29 05:41 | 22.68495 | -84.20820 | 37003 ft | 491 kts | 51° |
| 2026-04-29 05:42 | 22.72846 | -84.15090 | 37012 ft | 493 kts | 50° |
| 2026-04-29 05:42 | 22.77305 | -84.09462 | 37007 ft | 491 kts | 49° |
| 2026-04-29 05:43 | 22.81747 | -84.03851 | 37003 ft | 490 kts | 50° |
| 2026-04-29 05:43 | 22.86173 | -83.98239 | 36997 ft | 488 kts | 49° |
| 2026-04-29 05:44 | 22.90568 | -83.92675 | 36997 ft | 490 kts | 49° |
| 2026-04-29 05:44 | 22.95003 | -83.87041 | 37003 ft | 491 kts | 49° |
| 2026-04-29 05:45 | 22.99453 | -83.81391 | 37009 ft | 492 kts | 49° |
| 2026-04-29 05:45 | 23.03905 | -83.75727 | 37008 ft | 492 kts | 50° |
| 2026-04-29 05:46 | 23.08340 | -83.70082 | 37004 ft | 490 kts | 50° |
| 2026-04-29 05:46 | 23.12727 | -83.64489 | 36997 ft | 489 kts | 50° |
| 2026-04-29 05:47 | 23.17140 | -83.58858 | 36995 ft | 489 kts | 50° |
| 2026-04-29 05:47 | 23.21558 | -83.53214 | 37000 ft | 491 kts | 50° |
| 2026-04-29 05:48 | 23.25985 | -83.47553 | 37006 ft | 492 kts | 50° |
| 2026-04-29 05:48 | 23.30390 | -83.41913 | 37012 ft | 493 kts | 50° |
| 2026-04-29 05:49 | 23.34822 | -83.36232 | 37006 ft | 491 kts | 50° |
| 2026-04-29 05:49 | 23.39238 | -83.30565 | 37000 ft | 489 kts | 50° |
| 2026-04-29 05:50 | 23.43606 | -83.24955 | 36994 ft | 489 kts | 50° |
| 2026-04-29 05:50 | 23.48006 | -83.19296 | 36997 ft | 490 kts | 50° |
| 2026-04-29 05:51 | 23.52415 | -83.13618 | 37002 ft | 491 kts | 50° |
| 2026-04-29 05:51 | 23.56827 | -83.07928 | 37007 ft | 492 kts | 50° |
| 2026-04-29 05:52 | 23.61252 | -83.02211 | 37007 ft | 493 kts | 50° |
| 2026-04-29 05:52 | 23.65664 | -82.96508 | 37005 ft | 491 kts | 50° |
| 2026-04-29 05:53 | 23.70059 | -82.90818 | 36998 ft | 489 kts | 50° |
| 2026-04-29 05:53 | 23.74438 | -82.85143 | 36994 ft | 489 kts | 50° |
| 2026-04-29 05:54 | 23.78795 | -82.79490 | 36997 ft | 490 kts | 50° |
| 2026-04-29 05:54 | 23.83190 | -82.73781 | 37003 ft | 492 kts | 50° |
| 2026-04-29 05:55 | 23.87598 | -82.68049 | 37009 ft | 493 kts | 50° |
| 2026-04-29 05:55 | 23.92004 | -82.62311 | 37007 ft | 492 kts | 50° |
| 2026-04-29 05:56 | 23.96401 | -82.56580 | 37004 ft | 490 kts | 50° |
| 2026-04-29 05:56 | 24.00821 | -82.50913 | 36987 ft | 488 kts | 46° |
| 2026-04-29 05:57 | 24.05477 | -82.45576 | 37004 ft | 491 kts | 46° |
| 2026-04-29 05:57 | 24.10165 | -82.40138 | 37008 ft | 491 kts | 46° |
| 2026-04-29 05:58 | 24.14872 | -82.34704 | 37011 ft | 492 kts | 46° |
| 2026-04-29 05:58 | 24.19569 | -82.29258 | 37009 ft | 492 kts | 46° |
| 2026-04-29 05:59 | 24.24266 | -82.23814 | 37008 ft | 491 kts | 46° |
| 2026-04-29 05:59 | 24.28930 | -82.18400 | 37007 ft | 491 kts | 46° |
| 2026-04-29 06:00 | 24.33615 | -82.12955 | 37006 ft | 491 kts | 46° |
| 2026-04-29 06:00 | 24.38300 | -82.07504 | 37005 ft | 490 kts | 46° |
| 2026-04-29 06:01 | 24.42982 | -82.02050 | 37004 ft | 490 kts | 46° |
| 2026-04-29 06:01 | 24.47654 | -81.96601 | 37004 ft | 490 kts | 46° |
| 2026-04-29 06:02 | 24.52527 | -81.91439 | 37002 ft | 490 kts | 44° |
| 2026-04-29 06:02 | 24.57446 | -81.86235 | 37006 ft | 492 kts | 44° |
| 2026-04-29 06:03 | 24.62396 | -81.81031 | 37012 ft | 493 kts | 44° |
| 2026-04-29 06:03 | 24.67331 | -81.75816 | 37006 ft | 491 kts | 44° |
| 2026-04-29 06:04 | 24.72251 | -81.70621 | 37000 ft | 489 kts | 44° |
| 2026-04-29 06:04 | 24.77153 | -81.65436 | 36995 ft | 489 kts | 44° |
| 2026-04-29 06:05 | 24.82059 | -81.60240 | 36997 ft | 490 kts | 44° |
| 2026-04-29 06:05 | 24.86974 | -81.55030 | 37002 ft | 491 kts | 44° |
| 2026-04-29 06:06 | 24.91540 | -81.49442 | 37009 ft | 491 kts | 56° |
| 2026-04-29 06:06 | 24.95245 | -81.43112 | 37011 ft | 492 kts | 57° |
| 2026-04-29 06:07 | 24.99068 | -81.36865 | 37008 ft | 491 kts | 56° |
| 2026-04-29 06:07 | 25.02828 | -81.30592 | 37006 ft | 490 kts | 57° |
| 2026-04-29 06:08 | 25.06592 | -81.24339 | 37003 ft | 489 kts | 56° |
| 2026-04-29 06:08 | 25.10350 | -81.18094 | 37000 ft | 489 kts | 57° |
| 2026-04-29 06:09 | 25.14106 | -81.11823 | 37006 ft | 491 kts | 56° |
| 2026-04-29 06:09 | 25.17860 | -81.05567 | 37007 ft | 493 kts | 57° |
| 2026-04-29 06:10 | 25.21630 | -80.99250 | 37011 ft | 492 kts | 57° |
| 2026-04-29 06:10 | 25.25400 | -80.92942 | 37010 ft | 491 kts | 57° |
| 2026-04-29 06:11 | 25.29152 | -80.86645 | 37007 ft | 490 kts | 57° |
| 2026-04-29 06:11 | 25.32856 | -80.80437 | 37003 ft | 489 kts | 57° |
| 2026-04-29 06:12 | 25.36597 | -80.74151 | 37000 ft | 489 kts | 57° |
| 2026-04-29 06:12 | 25.40334 | -80.67865 | 37002 ft | 490 kts | 57° |
| 2026-04-29 06:13 | 25.44086 | -80.61547 | 37009 ft | 492 kts | 57° |
| 2026-04-29 06:13 | 25.47847 | -80.55203 | 37010 ft | 493 kts | 57° |
| 2026-04-29 06:14 | 25.51578 | -80.48902 | 37010 ft | 492 kts | 57° |
| 2026-04-29 06:14 | 25.55317 | -80.42579 | 37008 ft | 491 kts | 57° |
| 2026-04-29 06:15 | 25.59056 | -80.36249 | 37005 ft | 490 kts | 57° |
| 2026-04-29 06:15 | 25.62154 | -80.30996 | 37002 ft | 489 kts | 57° |
| 2026-04-29 06:16 | 25.65872 | -80.24685 | 36999 ft | 489 kts | 57° |
| 2026-04-29 06:16 | 25.69592 | -80.18361 | 37001 ft | 490 kts | 57° |
| 2026-04-29 06:17 | 25.73322 | -80.12012 | 37008 ft | 492 kts | 57° |
| 2026-04-29 06:17 | 25.77057 | -80.05646 | 37010 ft | 493 kts | 57° |
| 2026-04-29 06:18 | 25.80793 | -79.99268 | 37010 ft | 492 kts | 57° |
| 2026-04-29 06:18 | 25.84511 | -79.92913 | 37007 ft | 491 kts | 57° |
| 2026-04-29 06:19 | 25.88226 | -79.86554 | 37003 ft | 490 kts | 57° |
| 2026-04-29 06:19 | 25.91905 | -79.80249 | 36999 ft | 489 kts | 57° |
| 2026-04-29 06:20 | 25.95601 | -79.73905 | 36998 ft | 490 kts | 57° |
| 2026-04-29 06:20 | 25.99305 | -79.67538 | 37004 ft | 491 kts | 57° |
| 2026-04-29 06:21 | 26.03019 | -79.61147 | 37012 ft | 493 kts | 57° |
| 2026-04-29 06:21 | 26.06740 | -79.54733 | 37009 ft | 492 kts | 57° |
| 2026-04-29 06:22 | 26.10449 | -79.48331 | 37007 ft | 491 kts | 57° |
| 2026-04-29 06:22 | 26.14116 | -79.41993 | 37003 ft | 490 kts | 57° |
| 2026-04-29 06:23 | 26.17803 | -79.35613 | 36998 ft | 489 kts | 57° |
| 2026-04-29 06:23 | 26.21482 | -79.29236 | 36999 ft | 490 kts | 57° |
| 2026-04-29 06:24 | 26.25166 | -79.22842 | 37005 ft | 492 kts | 57° |
| 2026-04-29 06:24 | 26.28866 | -79.16411 | 37012 ft | 493 kts | 57° |
| 2026-04-29 06:25 | 26.32568 | -79.09968 | 37009 ft | 492 kts | 57° |
| 2026-04-29 06:25 | 26.36250 | -79.03551 | 37005 ft | 491 kts | 57° |
| 2026-04-29 06:26 | 26.39900 | -78.97180 | 37000 ft | 489 kts | 57° |
| 2026-04-29 06:26 | 26.43562 | -78.90779 | 36997 ft | 489 kts | 57° |
| 2026-04-29 06:27 | 26.47231 | -78.84356 | 37000 ft | 491 kts | 57° |
| 2026-04-29 06:27 | 26.50904 | -78.77918 | 37006 ft | 492 kts | 57° |
| 2026-04-29 06:28 | 26.54582 | -78.71460 | 37012 ft | 493 kts | 58° |
| 2026-04-29 06:28 | 26.57408 | -78.64565 | 37009 ft | 492 kts | 70° |
| 2026-04-29 06:29 | 26.59805 | -78.57396 | 37011 ft | 493 kts | 69° |
| 2026-04-29 06:29 | 26.62337 | -78.50276 | 37009 ft | 492 kts | 69° |
| 2026-04-29 06:30 | 26.66004 | -78.39592 | 37003 ft | 490 kts | 69° |
| 2026-04-29 06:31 | 26.68466 | -78.32487 | 36997 ft | 489 kts | 69° |
| 2026-04-29 06:31 | 26.70907 | -78.25377 | 36997 ft | 490 kts | 69° |
| 2026-04-29 06:32 | 26.73362 | -78.18256 | 37002 ft | 491 kts | 69° |
| 2026-04-29 06:32 | 26.75811 | -78.11107 | 37008 ft | 493 kts | 69° |
| 2026-04-29 06:33 | 26.78268 | -78.03944 | 37008 ft | 493 kts | 69° |
| 2026-04-29 06:33 | 26.80711 | -77.96794 | 37004 ft | 491 kts | 69° |
| 2026-04-29 06:34 | 26.83144 | -77.89668 | 36998 ft | 489 kts | 69° |
| 2026-04-29 06:34 | 26.85566 | -77.82554 | 36996 ft | 490 kts | 69° |
| 2026-04-29 06:35 | 26.87980 | -77.75456 | 37000 ft | 491 kts | 69° |
| 2026-04-29 06:35 | 26.90409 | -77.68298 | 37005 ft | 492 kts | 69° |
| 2026-04-29 06:36 | 26.92844 | -77.61105 | 37011 ft | 493 kts | 69° |
| 2026-04-29 06:36 | 26.95274 | -77.53920 | 37007 ft | 492 kts | 69° |
| 2026-04-29 06:37 | 26.97677 | -77.46796 | 37002 ft | 490 kts | 69° |
| 2026-04-29 06:37 | 27.00079 | -77.39662 | 36996 ft | 489 kts | 69° |
| 2026-04-29 06:38 | 27.02482 | -77.32513 | 36996 ft | 490 kts | 69° |
| 2026-04-29 06:38 | 27.04886 | -77.25344 | 37000 ft | 491 kts | 69° |
| 2026-04-29 06:39 | 27.07292 | -77.18160 | 37006 ft | 492 kts | 69° |
| 2026-04-29 06:39 | 27.09698 | -77.10958 | 37011 ft | 493 kts | 69° |
| 2026-04-29 06:40 | 27.12087 | -77.03795 | 37006 ft | 492 kts | 70° |
| 2026-04-29 06:40 | 27.14478 | -76.96610 | 37000 ft | 490 kts | 70° |
| 2026-04-29 06:41 | 27.16856 | -76.89452 | 36995 ft | 489 kts | 70° |
| 2026-04-29 06:41 | 27.19233 | -76.82283 | 36997 ft | 490 kts | 70° |
| 2026-04-29 06:42 | 27.21613 | -76.75090 | 37002 ft | 492 kts | 70° |
| 2026-04-29 06:42 | 27.23995 | -76.67874 | 37008 ft | 493 kts | 70° |
| 2026-04-29 06:43 | 27.26377 | -76.60647 | 37007 ft | 493 kts | 70° |
| 2026-04-29 06:43 | 27.28752 | -76.53426 | 37005 ft | 491 kts | 70° |
| 2026-04-29 06:44 | 27.31094 | -76.46292 | 36998 ft | 489 kts | 70° |
| 2026-04-29 06:44 | 27.33451 | -76.39099 | 36995 ft | 489 kts | 70° |
| 2026-04-29 06:45 | 27.35804 | -76.31903 | 36998 ft | 491 kts | 70° |
| 2026-04-29 06:45 | 27.38159 | -76.24685 | 37004 ft | 492 kts | 70° |
| 2026-04-29 06:46 | 27.40513 | -76.17456 | 37010 ft | 493 kts | 70° |
| 2026-04-29 06:46 | 27.42869 | -76.10208 | 37008 ft | 492 kts | 70° |
| 2026-04-29 06:47 | 27.45213 | -76.02979 | 37002 ft | 490 kts | 70° |
| 2026-04-29 06:47 | 27.47529 | -75.95825 | 36996 ft | 489 kts | 70° |
| 2026-04-29 06:48 | 27.49856 | -75.88622 | 36996 ft | 490 kts | 70° |
| 2026-04-29 06:48 | 27.52186 | -75.81395 | 37001 ft | 491 kts | 70° |
| 2026-04-29 06:49 | 27.54520 | -75.74140 | 37007 ft | 492 kts | 70° |
| 2026-04-29 06:49 | 27.56856 | -75.66867 | 37012 ft | 493 kts | 70° |
| 2026-04-29 06:50 | 27.59166 | -75.59656 | 37006 ft | 491 kts | 70° |
| 2026-04-29 06:50 | 27.61485 | -75.52405 | 37000 ft | 490 kts | 70° |
| 2026-04-29 06:51 | 27.63788 | -75.45188 | 36995 ft | 489 kts | 70° |
| 2026-04-29 06:51 | 27.66090 | -75.37959 | 36998 ft | 490 kts | 70° |
| 2026-04-29 06:52 | 27.68396 | -75.30706 | 37003 ft | 492 kts | 70° |
| 2026-04-29 06:52 | 27.70708 | -75.23416 | 37009 ft | 493 kts | 70° |
| 2026-04-29 06:53 | 27.73014 | -75.16127 | 37008 ft | 493 kts | 70° |
| 2026-04-29 06:53 | 27.75311 | -75.08858 | 37004 ft | 491 kts | 70° |
| 2026-04-29 06:54 | 27.77579 | -75.01661 | 36997 ft | 489 kts | 70° |
| 2026-04-29 06:54 | 27.79856 | -74.94421 | 36996 ft | 490 kts | 70° |
| 2026-04-29 06:55 | 27.82136 | -74.87159 | 37000 ft | 491 kts | 70° |
| 2026-04-29 06:55 | 27.85071 | -74.80207 | 37005 ft | 491 kts | 57° |
| 2026-04-29 06:56 | 27.88940 | -74.73821 | 37010 ft | 493 kts | 56° |
| 2026-04-29 06:56 | 27.92633 | -74.67358 | 37009 ft | 492 kts | 57° |
| 2026-04-29 06:57 | 27.96414 | -74.60918 | 37008 ft | 491 kts | 56° |
| 2026-04-29 06:57 | 28.00157 | -74.54457 | 37005 ft | 490 kts | 57° |
| 2026-04-29 06:58 | 28.03900 | -74.48007 | 37002 ft | 489 kts | 57° |
| 2026-04-29 06:58 | 28.07614 | -74.41604 | 37001 ft | 490 kts | 57° |
| 2026-04-29 06:59 | 28.11351 | -74.35135 | 37008 ft | 492 kts | 57° |
| 2026-04-29 06:59 | 28.15109 | -74.28637 | 37010 ft | 493 kts | 57° |
| 2026-04-29 07:00 | 28.18861 | -74.22127 | 37011 ft | 492 kts | 57° |
| 2026-04-29 07:00 | 28.22612 | -74.15617 | 37010 ft | 491 kts | 57° |
| 2026-04-29 07:01 | 28.26342 | -74.09127 | 37007 ft | 491 kts | 57° |
| 2026-04-29 07:01 | 28.30065 | -74.02642 | 37004 ft | 490 kts | 57° |
| 2026-04-29 07:02 | 28.33759 | -73.96196 | 37002 ft | 489 kts | 57° |
| 2026-04-29 07:02 | 28.37468 | -73.89714 | 37001 ft | 490 kts | 57° |
| 2026-04-29 07:03 | 28.41189 | -73.83202 | 37007 ft | 492 kts | 57° |
| 2026-04-29 07:03 | 28.44916 | -73.76669 | 37008 ft | 493 kts | 57° |
| 2026-04-29 07:04 | 28.48644 | -73.70125 | 37011 ft | 493 kts | 57° |
| 2026-04-29 07:04 | 28.52339 | -73.63629 | 37010 ft | 492 kts | 57° |
| 2026-04-29 07:05 | 28.56048 | -73.57097 | 37008 ft | 491 kts | 57° |
| 2026-04-29 07:05 | 28.59753 | -73.50562 | 37006 ft | 491 kts | 57° |
| 2026-04-29 07:06 | 28.63447 | -73.44037 | 37003 ft | 490 kts | 57° |
| 2026-04-29 07:06 | 28.67139 | -73.37506 | 37001 ft | 490 kts | 57° |
| 2026-04-29 07:07 | 28.70200 | -73.32082 | 37000 ft | 489 kts | 57° |
| 2026-04-29 07:07 | 28.73881 | -73.25552 | 37002 ft | 491 kts | 57° |
| 2026-04-29 07:08 | 28.77572 | -73.18993 | 37009 ft | 492 kts | 57° |
| 2026-04-29 07:08 | 28.81272 | -73.12408 | 37010 ft | 493 kts | 57° |
| 2026-04-29 07:09 | 28.84970 | -73.05816 | 37011 ft | 492 kts | 57° |
| 2026-04-29 07:09 | 28.88654 | -72.99239 | 37009 ft | 491 kts | 57° |
| 2026-04-29 07:10 | 28.92304 | -72.92711 | 37006 ft | 491 kts | 57° |
| 2026-04-29 07:10 | 28.95967 | -72.86151 | 37004 ft | 490 kts | 57° |
| 2026-04-29 07:11 | 28.99626 | -72.79587 | 37001 ft | 490 kts | 57° |
| 2026-04-29 07:11 | 29.03280 | -72.73023 | 37000 ft | 490 kts | 57° |
| 2026-04-29 07:12 | 29.06942 | -72.66433 | 37005 ft | 492 kts | 58° |
| 2026-04-29 07:12 | 29.10611 | -72.59820 | 37010 ft | 493 kts | 58° |
| 2026-04-29 07:13 | 29.14283 | -72.53191 | 37010 ft | 493 kts | 58° |
| 2026-04-29 07:13 | 29.17944 | -72.46571 | 37009 ft | 492 kts | 58° |
| 2026-04-29 07:14 | 29.21595 | -72.39960 | 37006 ft | 491 kts | 58° |
| 2026-04-29 07:14 | 29.25214 | -72.33394 | 37003 ft | 490 kts | 58° |
| 2026-04-29 07:15 | 29.28847 | -72.26793 | 37000 ft | 489 kts | 58° |
| 2026-04-29 07:15 | 29.32480 | -72.20183 | 37000 ft | 490 kts | 58° |
| 2026-04-29 07:16 | 29.36116 | -72.13555 | 37006 ft | 492 kts | 58° |
| 2026-04-29 07:16 | 29.39765 | -72.06893 | 37007 ft | 494 kts | 58° |
| 2026-04-29 07:17 | 29.43411 | -72.00226 | 37010 ft | 493 kts | 58° |
| 2026-04-29 07:17 | 29.47024 | -71.93608 | 37008 ft | 491 kts | 58° |
| 2026-04-29 07:18 | 29.50651 | -71.86955 | 37004 ft | 491 kts | 58° |
| 2026-04-29 07:18 | 29.54268 | -71.80309 | 37001 ft | 490 kts | 58° |
| 2026-04-29 07:19 | 29.57872 | -71.73675 | 36999 ft | 490 kts | 58° |
| 2026-04-29 07:19 | 29.61481 | -71.67021 | 37003 ft | 491 kts | 58° |
| 2026-04-29 07:20 | 29.65099 | -71.60340 | 37010 ft | 493 kts | 58° |
| 2026-04-29 07:20 | 29.68699 | -71.53683 | 37009 ft | 493 kts | 58° |
| 2026-04-29 07:21 | 29.72317 | -71.46979 | 37008 ft | 492 kts | 58° |
| 2026-04-29 07:21 | 29.75919 | -71.40294 | 37005 ft | 491 kts | 58° |
| 2026-04-29 07:22 | 29.79510 | -71.33619 | 37001 ft | 490 kts | 58° |
| 2026-04-29 07:22 | 29.83096 | -71.26942 | 36998 ft | 490 kts | 58° |
| 2026-04-29 07:23 | 29.86682 | -71.20256 | 37002 ft | 491 kts | 58° |
| 2026-04-29 07:23 | 29.90256 | -71.13580 | 37008 ft | 493 kts | 58° |
| 2026-04-29 07:24 | 29.93854 | -71.06845 | 37009 ft | 494 kts | 58° |
| 2026-04-29 07:24 | 29.97447 | -71.00112 | 37008 ft | 492 kts | 58° |
| 2026-04-29 07:25 | 30.01025 | -70.93394 | 37003 ft | 491 kts | 58° |
| 2026-04-29 07:25 | 30.04591 | -70.86689 | 36999 ft | 490 kts | 58° |
| 2026-04-29 07:26 | 30.08151 | -70.79982 | 36999 ft | 491 kts | 58° |
| 2026-04-29 07:26 | 30.11722 | -70.73243 | 37003 ft | 492 kts | 58° |
| 2026-04-29 07:27 | 30.15272 | -70.66534 | 37009 ft | 493 kts | 58° |
| 2026-04-29 07:27 | 30.18873 | -70.59716 | 37009 ft | 494 kts | 59° |
| 2026-04-29 07:28 | 30.22416 | -70.52997 | 37006 ft | 492 kts | 59° |
| 2026-04-29 07:28 | 30.25968 | -70.46249 | 37002 ft | 490 kts | 59° |
| 2026-04-29 07:29 | 30.29508 | -70.39512 | 36997 ft | 490 kts | 59° |
| 2026-04-29 07:29 | 30.33043 | -70.32774 | 36999 ft | 491 kts | 59° |
| 2026-04-29 07:30 | 30.36596 | -70.25990 | 37004 ft | 492 kts | 59° |
| 2026-04-29 07:30 | 30.40147 | -70.19197 | 37010 ft | 494 kts | 59° |
| 2026-04-29 07:31 | 30.45452 | -70.09025 | 37007 ft | 492 kts | 59° |
| 2026-04-29 07:31 | 30.48983 | -70.02241 | 37001 ft | 491 kts | 59° |
| 2026-04-29 07:32 | 30.52503 | -69.95465 | 36996 ft | 490 kts | 59° |
| 2026-04-29 07:32 | 30.56024 | -69.88677 | 36999 ft | 491 kts | 59° |
| 2026-04-29 07:33 | 30.59548 | -69.81870 | 37004 ft | 493 kts | 59° |
| 2026-04-29 07:33 | 30.63054 | -69.75088 | 37010 ft | 494 kts | 59° |
| 2026-04-29 07:34 | 30.66587 | -69.68241 | 37007 ft | 493 kts | 59° |
| 2026-04-29 07:34 | 30.70101 | -69.61418 | 37003 ft | 491 kts | 59° |
| 2026-04-29 07:35 | 30.73599 | -69.54616 | 36997 ft | 490 kts | 59° |
| 2026-04-29 07:35 | 30.77091 | -69.47812 | 36997 ft | 491 kts | 59° |
| 2026-04-29 07:36 | 30.80591 | -69.40981 | 37002 ft | 492 kts | 59° |
| 2026-04-29 07:36 | 30.84099 | -69.34122 | 37007 ft | 493 kts | 59° |
| 2026-04-29 07:37 | 30.87608 | -69.27251 | 37008 ft | 494 kts | 59° |
| 2026-04-29 07:37 | 30.91084 | -69.20431 | 37005 ft | 492 kts | 59° |
| 2026-04-29 07:38 | 30.94566 | -69.13586 | 37000 ft | 490 kts | 59° |
| 2026-04-29 07:38 | 30.98035 | -69.06755 | 36996 ft | 490 kts | 59° |
| 2026-04-29 07:39 | 31.01508 | -68.99905 | 36999 ft | 491 kts | 59° |
| 2026-04-29 07:39 | 31.04987 | -68.93031 | 37004 ft | 493 kts | 59° |
| 2026-04-29 07:40 | 31.08469 | -68.86136 | 37010 ft | 494 kts | 59° |
| 2026-04-29 07:40 | 31.11932 | -68.79270 | 37008 ft | 493 kts | 59° |
| 2026-04-29 07:41 | 31.15403 | -68.72374 | 37003 ft | 491 kts | 59° |
| 2026-04-29 07:41 | 31.18854 | -68.65506 | 36997 ft | 490 kts | 59° |
| 2026-04-29 07:42 | 31.22303 | -68.58629 | 36997 ft | 491 kts | 59° |
| 2026-04-29 07:42 | 31.25755 | -68.51735 | 37001 ft | 492 kts | 60° |
| 2026-04-29 07:43 | 31.29211 | -68.44819 | 37007 ft | 493 kts | 60° |
| 2026-04-29 07:43 | 31.32671 | -68.37883 | 37012 ft | 494 kts | 60° |
| 2026-04-29 07:44 | 31.36100 | -68.30996 | 37006 ft | 492 kts | 60° |
| 2026-04-29 07:44 | 31.39535 | -68.24087 | 37000 ft | 490 kts | 60° |
| 2026-04-29 07:45 | 31.42959 | -68.17186 | 36996 ft | 490 kts | 60° |
| 2026-04-29 07:45 | 31.46385 | -68.10268 | 37000 ft | 492 kts | 60° |
| 2026-04-29 07:46 | 31.49903 | -68.03404 | 37006 ft | 492 kts | 57° |
| 2026-04-29 07:46 | 31.53515 | -67.96563 | 37009 ft | 494 kts | 58° |
| 2026-04-29 07:47 | 31.57153 | -67.89738 | 37009 ft | 493 kts | 58° |
| 2026-04-29 07:47 | 31.60754 | -67.82953 | 37004 ft | 491 kts | 58° |
| 2026-04-29 07:48 | 31.64355 | -67.76145 | 37001 ft | 491 kts | 58° |
| 2026-04-29 07:48 | 31.67966 | -67.69325 | 37002 ft | 492 kts | 58° |
| 2026-04-29 07:49 | 31.71576 | -67.62478 | 37004 ft | 492 kts | 58° |
| 2026-04-29 07:49 | 31.75158 | -67.55684 | 37006 ft | 493 kts | 58° |
| 2026-04-29 07:50 | 31.78764 | -67.48823 | 37009 ft | 493 kts | 58° |
| 2026-04-29 07:50 | 31.82368 | -67.41961 | 37012 ft | 493 kts | 58° |
| 2026-04-29 07:51 | 31.85969 | -67.35087 | 37010 ft | 494 kts | 58° |
| 2026-04-29 07:51 | 31.89571 | -67.28203 | 37007 ft | 494 kts | 58° |
| 2026-04-29 07:52 | 31.93169 | -67.21310 | 37011 ft | 494 kts | 58° |
| 2026-04-29 07:52 | 31.96747 | -67.14446 | 37008 ft | 494 kts | 58° |
| 2026-04-29 07:53 | 32.00336 | -67.07546 | 37004 ft | 492 kts | 58° |
| 2026-04-29 07:53 | 32.03909 | -67.00666 | 36998 ft | 491 kts | 58° |
| 2026-04-29 07:54 | 32.07469 | -66.93797 | 36994 ft | 491 kts | 58° |
| 2026-04-29 07:54 | 32.11029 | -66.86917 | 36997 ft | 492 kts | 59° |
| 2026-04-29 07:55 | 32.14594 | -66.80013 | 37002 ft | 493 kts | 59° |
| 2026-04-29 07:55 | 32.18164 | -66.73088 | 37008 ft | 494 kts | 59° |
| 2026-04-29 07:56 | 32.21733 | -66.66152 | 37010 ft | 494 kts | 59° |
| 2026-04-29 07:56 | 32.25270 | -66.59266 | 37006 ft | 492 kts | 59° |
| 2026-04-29 07:57 | 32.28812 | -66.52357 | 37001 ft | 491 kts | 59° |
| 2026-04-29 07:57 | 32.32342 | -66.45459 | 36997 ft | 490 kts | 59° |
| 2026-04-29 07:58 | 32.35877 | -66.38537 | 37000 ft | 492 kts | 59° |
| 2026-04-29 07:58 | 32.39396 | -66.31634 | 37006 ft | 493 kts | 59° |
| 2026-04-29 07:59 | 32.42940 | -66.24670 | 37012 ft | 494 kts | 59° |
| 2026-04-29 07:59 | 32.46486 | -66.17691 | 37007 ft | 493 kts | 59° |
| 2026-04-29 08:00 | 32.50011 | -66.10738 | 37003 ft | 491 kts | 59° |
| 2026-04-29 08:00 | 32.53516 | -66.03810 | 36997 ft | 490 kts | 59° |
| 2026-04-29 08:01 | 32.56431 | -65.98040 | 36998 ft | 491 kts | 59° |
| 2026-04-29 08:01 | 32.59943 | -65.91076 | 37002 ft | 493 kts | 59° |
| 2026-04-29 08:02 | 32.63460 | -65.84090 | 37007 ft | 494 kts | 59° |
| 2026-04-29 08:02 | 32.66979 | -65.77084 | 37008 ft | 495 kts | 59° |
| 2026-04-29 08:03 | 32.70492 | -65.70079 | 37006 ft | 493 kts | 59° |
| 2026-04-29 08:03 | 32.73995 | -65.63082 | 37000 ft | 491 kts | 59° |
| 2026-04-29 08:04 | 32.77453 | -65.56159 | 36996 ft | 491 kts | 59° |
| 2026-04-29 08:04 | 32.80930 | -65.49167 | 36538 ft | 492 kts | 54° |
| 2026-04-29 08:05 | 32.82682 | -65.45665 | 36648 ft | 495 kts | 54° |
| 2026-04-29 08:05 | 32.84455 | -65.42126 | 36780 ft | 499 kts | 54° |
| 2026-04-29 08:05 | 32.86225 | -65.38559 | 36905 ft | 503 kts | 54° |
| 2026-04-29 08:05 | 32.88005 | -65.34948 | 36911 ft | 509 kts | 54° |
| 2026-04-29 08:06 | 32.91654 | -65.27604 | 36919 ft | 520 kts | 54° |
| 2026-04-29 08:06 | 32.95298 | -65.20224 | 36913 ft | 519 kts | 54° |
| 2026-04-29 08:07 | 32.98953 | -65.12827 | 36908 ft | 517 kts | 54° |
| 2026-04-29 08:07 | 33.02596 | -65.05434 | 36904 ft | 516 kts | 54° |
| 2026-04-29 08:08 | 33.06224 | -64.98056 | 36899 ft | 517 kts | 54° |
| 2026-04-29 08:08 | 33.09867 | -64.90634 | 36894 ft | 519 kts | 54° |
| 2026-04-29 08:09 | 33.13489 | -64.83236 | 36896 ft | 520 kts | 54° |
| 2026-04-29 08:09 | 33.17132 | -64.75783 | 36896 ft | 519 kts | 54° |
| 2026-04-29 08:10 | 33.20758 | -64.68349 | 36891 ft | 517 kts | 54° |
| 2026-04-29 08:10 | 33.24373 | -64.60922 | 36878 ft | 516 kts | 54° |
| 2026-04-29 08:11 | 33.27984 | -64.53491 | 36880 ft | 517 kts | 54° |
| 2026-04-29 08:11 | 33.31601 | -64.46029 | 36864 ft | 519 kts | 54° |
| 2026-04-29 08:12 | 33.35195 | -64.38599 | 36869 ft | 520 kts | 54° |
| 2026-04-29 08:12 | 33.38812 | -64.31106 | 36862 ft | 519 kts | 54° |
| 2026-04-29 08:13 | 33.42410 | -64.23639 | 36861 ft | 517 kts | 54° |
| 2026-04-29 08:13 | 33.45997 | -64.16176 | 36861 ft | 516 kts | 54° |
| 2026-04-29 08:14 | 33.49577 | -64.08717 | 36852 ft | 517 kts | 54° |
| 2026-04-29 08:14 | 33.53160 | -64.01233 | 36853 ft | 518 kts | 54° |
| 2026-04-29 08:15 | 33.56727 | -63.93767 | 36843 ft | 519 kts | 54° |
| 2026-04-29 08:15 | 33.60316 | -63.86240 | 36846 ft | 520 kts | 54° |
| 2026-04-29 08:16 | 33.63901 | -63.78702 | 36842 ft | 519 kts | 54° |
| 2026-04-29 08:16 | 33.67472 | -63.71182 | 36838 ft | 517 kts | 54° |
| 2026-04-29 08:17 | 33.71029 | -63.63675 | 36829 ft | 517 kts | 54° |
| 2026-04-29 08:17 | 33.74563 | -63.56202 | 36830 ft | 519 kts | 54° |
| 2026-04-29 08:18 | 33.78129 | -63.48643 | 36820 ft | 520 kts | 54° |
| 2026-04-29 08:18 | 33.81695 | -63.41068 | 36822 ft | 521 kts | 54° |
| 2026-04-29 08:19 | 33.85259 | -63.33480 | 36820 ft | 520 kts | 54° |
| 2026-04-29 08:19 | 33.88807 | -63.25912 | 36816 ft | 519 kts | 54° |
| 2026-04-29 08:20 | 33.92349 | -63.18342 | 36812 ft | 518 kts | 54° |
| 2026-04-29 08:20 | 33.95879 | -63.10780 | 36805 ft | 519 kts | 54° |
| 2026-04-29 08:21 | 33.99392 | -63.03238 | 36805 ft | 520 kts | 54° |
| 2026-04-29 08:21 | 34.02937 | -62.95609 | 36800 ft | 521 kts | 54° |
| 2026-04-29 08:22 | 34.06469 | -62.87993 | 36802 ft | 519 kts | 54° |
| 2026-04-29 08:22 | 34.09961 | -62.80447 | 36799 ft | 517 kts | 54° |
| 2026-04-29 08:23 | 34.13471 | -62.72849 | 36792 ft | 518 kts | 54° |
| 2026-04-29 08:23 | 34.16982 | -62.65228 | 36778 ft | 519 kts | 54° |
| 2026-04-29 08:24 | 34.20490 | -62.57599 | 36789 ft | 520 kts | 54° |
| 2026-04-29 08:24 | 34.23996 | -62.49957 | 36777 ft | 521 kts | 54° |
| 2026-04-29 08:25 | 34.27512 | -62.42276 | 36775 ft | 522 kts | 54° |
| 2026-04-29 08:25 | 34.31023 | -62.34589 | 36775 ft | 522 kts | 54° |
| 2026-04-29 08:26 | 34.34503 | -62.26955 | 36771 ft | 521 kts | 54° |
| 2026-04-29 08:26 | 34.37996 | -62.19273 | 36772 ft | 521 kts | 54° |
| 2026-04-29 08:27 | 34.41219 | -62.11389 | 36754 ft | 530 kts | 64° |
| 2026-04-29 08:27 | 34.43623 | -62.02901 | 36763 ft | 533 kts | 64° |
| 2026-04-29 08:28 | 34.46086 | -61.94421 | 36765 ft | 534 kts | 64° |
| 2026-04-29 08:28 | 34.48512 | -61.85915 | 36756 ft | 534 kts | 64° |
| 2026-04-29 08:29 | 34.50947 | -61.77417 | 36759 ft | 533 kts | 64° |
| 2026-04-29 08:29 | 34.53367 | -61.68919 | 36745 ft | 533 kts | 64° |
| 2026-04-29 08:30 | 34.56972 | -61.56228 | 36750 ft | 531 kts | 64° |
| 2026-04-29 08:31 | 34.59368 | -61.47749 | 36746 ft | 531 kts | 64° |
| 2026-04-29 08:31 | 34.61758 | -61.39277 | 36743 ft | 530 kts | 64° |
| 2026-04-29 08:32 | 34.64141 | -61.30803 | 36735 ft | 531 kts | 64° |
| 2026-04-29 08:32 | 34.66526 | -61.22292 | 36736 ft | 533 kts | 64° |
| 2026-04-29 08:33 | 34.68910 | -61.13757 | 36737 ft | 533 kts | 64° |
| 2026-04-29 08:33 | 34.71267 | -61.05297 | 36729 ft | 531 kts | 64° |
| 2026-04-29 08:34 | 34.73641 | -60.96750 | 36735 ft | 530 kts | 64° |
| 2026-04-29 08:34 | 34.75992 | -60.88259 | 36725 ft | 529 kts | 63° |
| 2026-04-29 08:35 | 34.78310 | -60.79859 | 36728 ft | 527 kts | 63° |
| 2026-04-29 08:35 | 34.80635 | -60.71410 | 36716 ft | 526 kts | 63° |
| 2026-04-29 08:36 | 34.82955 | -60.62956 | 36721 ft | 525 kts | 63° |
| 2026-04-29 08:36 | 34.85259 | -60.54532 | 36718 ft | 525 kts | 63° |
| 2026-04-29 08:37 | 34.87564 | -60.46081 | 36717 ft | 526 kts | 63° |
| 2026-04-29 08:37 | 34.89847 | -60.37677 | 36721 ft | 526 kts | 63° |
| 2026-04-29 08:38 | 34.92142 | -60.29206 | 36715 ft | 526 kts | 63° |
| 2026-04-29 08:38 | 34.94425 | -60.20755 | 36719 ft | 524 kts | 63° |
| 2026-04-29 08:39 | 34.96698 | -60.12316 | 36717 ft | 523 kts | 63° |
| 2026-04-29 08:39 | 34.98960 | -60.03888 | 36717 ft | 522 kts | 63° |
| 2026-04-29 08:40 | 35.01100 | -59.95464 | 36716 ft | 525 kts | 65° |
| 2026-04-29 08:40 | 35.03236 | -59.86939 | 36719 ft | 527 kts | 65° |
| 2026-04-29 08:41 | 35.05321 | -59.78370 | 36721 ft | 526 kts | 66° |
| 2026-04-29 08:41 | 35.07418 | -59.69835 | 36715 ft | 524 kts | 66° |
| 2026-04-29 08:42 | 35.09493 | -59.61320 | 36718 ft | 523 kts | 67° |
| 2026-04-29 08:42 | 35.11559 | -59.52815 | 36722 ft | 521 kts | 67° |
| 2026-04-29 08:43 | 35.13620 | -59.44320 | 36719 ft | 522 kts | 68° |
| 2026-04-29 08:43 | 35.15660 | -59.35861 | 36722 ft | 523 kts | 68° |
| 2026-04-29 08:44 | 35.17716 | -59.27326 | 36725 ft | 523 kts | 69° |
| 2026-04-29 08:44 | 35.19758 | -59.18799 | 36722 ft | 522 kts | 69° |
| 2026-04-29 08:45 | 35.21790 | -59.10303 | 36727 ft | 519 kts | 69° |
| 2026-04-29 08:45 | 35.23809 | -59.01826 | 36726 ft | 518 kts | 70° |
| 2026-04-29 08:46 | 35.25804 | -58.93422 | 36728 ft | 517 kts | 70° |
| 2026-04-29 08:46 | 35.27807 | -58.84953 | 36730 ft | 519 kts | 70° |
| 2026-04-29 08:47 | 35.29809 | -58.76461 | 36731 ft | 519 kts | 70° |
| 2026-04-29 08:47 | 35.31801 | -58.67982 | 36730 ft | 517 kts | 71° |
| 2026-04-29 08:48 | 35.33777 | -58.59540 | 36731 ft | 515 kts | 71° |
| 2026-04-29 08:48 | 35.35733 | -58.51157 | 36732 ft | 514 kts | 71° |
| 2026-04-29 08:49 | 35.37694 | -58.42722 | 36735 ft | 515 kts | 71° |
| 2026-04-29 08:49 | 35.39651 | -58.34274 | 36741 ft | 515 kts | 72° |
| 2026-04-29 08:50 | 35.41607 | -58.25806 | 36736 ft | 516 kts | 72° |
| 2026-04-29 08:50 | 35.43552 | -58.17353 | 36743 ft | 514 kts | 72° |
| 2026-04-29 08:51 | 35.45486 | -58.08914 | 36742 ft | 513 kts | 72° |
| 2026-04-29 08:51 | 35.47401 | -58.00534 | 36732 ft | 513 kts | 73° |
| 2026-04-29 08:52 | 35.49318 | -57.92112 | 36738 ft | 511 kts | 73° |
| 2026-04-29 08:52 | 35.51225 | -57.83704 | 36733 ft | 510 kts | 73° |
| 2026-04-29 08:53 | 35.53119 | -57.75330 | 36733 ft | 509 kts | 73° |
| 2026-04-29 08:53 | 35.55006 | -57.66950 | 36733 ft | 508 kts | 74° |
| 2026-04-29 08:54 | 35.56880 | -57.58601 | 36731 ft | 507 kts | 74° |
| 2026-04-29 08:54 | 35.58750 | -57.50242 | 36735 ft | 508 kts | 74° |
| 2026-04-29 08:55 | 35.60617 | -57.41865 | 36740 ft | 509 kts | 75° |
| 2026-04-29 08:55 | 35.62470 | -57.33521 | 36738 ft | 509 kts | 75° |
| 2026-04-29 08:56 | 35.64022 | -57.26511 | 36738 ft | 507 kts | 75° |
| 2026-04-29 08:56 | 35.66162 | -57.16808 | 36733 ft | 505 kts | 75° |
| 2026-04-29 08:57 | 35.67994 | -57.08467 | 36735 ft | 507 kts | 75° |
| 2026-04-29 08:57 | 35.69524 | -57.01484 | 36734 ft | 509 kts | 76° |
| 2026-04-29 08:58 | 35.71360 | -56.93070 | 36738 ft | 510 kts | 76° |
| 2026-04-29 08:58 | 35.73192 | -56.84646 | 36737 ft | 510 kts | 76° |
| 2026-04-29 08:59 | 35.75018 | -56.76218 | 36738 ft | 509 kts | 77° |
| 2026-04-29 08:59 | 35.76834 | -56.67805 | 36737 ft | 507 kts | 77° |
| 2026-04-29 09:00 | 35.78638 | -56.59418 | 36743 ft | 506 kts | 77° |
| 2026-04-29 09:00 | 35.80432 | -56.51047 | 36742 ft | 504 kts | 78° |
| 2026-04-29 09:01 | 35.82202 | -56.42749 | 36748 ft | 503 kts | 78° |
| 2026-04-29 09:01 | 35.83975 | -56.34423 | 36749 ft | 502 kts | 78° |
| 2026-04-29 09:02 | 35.85733 | -56.26124 | 36752 ft | 498 kts | 79° |
| 2026-04-29 09:02 | 35.87471 | -56.17889 | 36758 ft | 494 kts | 79° |
| 2026-04-29 09:03 | 35.89194 | -56.09702 | 36761 ft | 492 kts | 79° |
| 2026-04-29 09:03 | 35.90896 | -56.01573 | 36764 ft | 492 kts | 79° |
| 2026-04-29 09:04 | 35.92605 | -55.93405 | 36770 ft | 491 kts | 79° |
| 2026-04-29 09:04 | 35.94302 | -55.85239 | 36780 ft | 491 kts | 79° |
| 2026-04-29 09:05 | 35.95996 | -55.77064 | 36788 ft | 491 kts | 80° |
| 2026-04-29 09:05 | 35.97683 | -55.68900 | 36790 ft | 491 kts | 80° |
| 2026-04-29 09:06 | 35.99351 | -55.60793 | 36794 ft | 490 kts | 80° |
| 2026-04-29 09:06 | 36.01020 | -55.52651 | 36797 ft | 487 kts | 80° |
| 2026-04-29 09:07 | 36.02675 | -55.44559 | 36798 ft | 484 kts | 80° |
| 2026-04-29 09:07 | 36.04312 | -55.36501 | 36806 ft | 484 kts | 80° |
| 2026-04-29 09:08 | 36.05952 | -55.28422 | 36812 ft | 485 kts | 81° |
| 2026-04-29 09:08 | 36.07587 | -55.20320 | 36811 ft | 486 kts | 81° |
| 2026-04-29 09:09 | 36.09220 | -55.12209 | 36821 ft | 485 kts | 81° |
| 2026-04-29 09:09 | 36.10840 | -55.04130 | 36832 ft | 483 kts | 81° |
| 2026-04-29 09:10 | 36.12451 | -54.96061 | 36836 ft | 483 kts | 81° |
| 2026-04-29 09:10 | 36.14046 | -54.88046 | 36833 ft | 483 kts | 81° |
| 2026-04-29 09:11 | 36.15645 | -54.79974 | 36838 ft | 483 kts | 81° |
| 2026-04-29 09:11 | 36.17242 | -54.71892 | 36844 ft | 483 kts | 82° |
| 2026-04-29 09:12 | 36.18831 | -54.63814 | 36851 ft | 483 kts | 82° |
| 2026-04-29 09:12 | 36.20417 | -54.55718 | 36850 ft | 483 kts | 82° |
| 2026-04-29 09:13 | 36.21999 | -54.47616 | 36857 ft | 484 kts | 82° |
| 2026-04-29 09:13 | 36.23564 | -54.39567 | 36864 ft | 484 kts | 82° |
| 2026-04-29 09:14 | 36.25135 | -54.31455 | 36863 ft | 484 kts | 82° |
| 2026-04-29 09:14 | 36.26702 | -54.23336 | 36868 ft | 485 kts | 82° |
| 2026-04-29 09:15 | 36.28264 | -54.15208 | 36874 ft | 485 kts | 82° |
| 2026-04-29 09:15 | 36.29818 | -54.07095 | 36878 ft | 483 kts | 83° |
| 2026-04-29 09:16 | 36.31359 | -53.99012 | 36876 ft | 481 kts | 83° |
| 2026-04-29 09:16 | 36.32891 | -53.90947 | 36891 ft | 481 kts | 83° |
| 2026-04-29 09:17 | 36.34419 | -53.82868 | 36895 ft | 482 kts | 83° |
| 2026-04-29 09:17 | 36.35945 | -53.74771 | 36910 ft | 482 kts | 83° |
| 2026-04-29 09:18 | 36.37466 | -53.66670 | 36905 ft | 482 kts | 83° |
| 2026-04-29 09:18 | 36.38978 | -53.58582 | 36918 ft | 481 kts | 83° |
| 2026-04-29 09:19 | 36.40484 | -53.50494 | 36916 ft | 481 kts | 83° |
| 2026-04-29 09:19 | 36.41978 | -53.42440 | 36920 ft | 482 kts | 83° |
| 2026-04-29 09:20 | 36.43478 | -53.34319 | 36924 ft | 482 kts | 83° |
| 2026-04-29 09:20 | 36.44977 | -53.26174 | 36926 ft | 484 kts | 83° |
| 2026-04-29 09:21 | 36.46472 | -53.18014 | 36928 ft | 485 kts | 83° |
| 2026-04-29 09:21 | 36.47962 | -53.09852 | 36933 ft | 484 kts | 83° |
| 2026-04-29 09:22 | 36.49443 | -53.01699 | 36941 ft | 483 kts | 83° |
| 2026-04-29 09:22 | 36.50909 | -52.93599 | 36938 ft | 484 kts | 83° |
| 2026-04-29 09:23 | 36.52385 | -52.85407 | 36947 ft | 487 kts | 83° |
| 2026-04-29 09:23 | 36.53865 | -52.77162 | 36949 ft | 489 kts | 83° |
| 2026-04-29 09:24 | 36.55345 | -52.68882 | 36957 ft | 492 kts | 83° |
| 2026-04-29 09:24 | 36.56826 | -52.60560 | 36961 ft | 493 kts | 83° |
| 2026-04-29 09:25 | 36.58304 | -52.52219 | 36962 ft | 493 kts | 83° |
| 2026-04-29 09:25 | 36.59775 | -52.43878 | 36966 ft | 494 kts | 83° |
| 2026-04-29 09:26 | 36.61247 | -52.35497 | 36966 ft | 496 kts | 83° |
| 2026-04-29 09:26 | 36.62707 | -52.27149 | 36974 ft | 498 kts | 83° |
| 2026-04-29 09:27 | 36.64179 | -52.18698 | 36976 ft | 500 kts | 83° |
| 2026-04-29 09:27 | 36.65653 | -52.10198 | 36979 ft | 503 kts | 83° |
| 2026-04-29 09:28 | 36.67123 | -52.01681 | 36981 ft | 503 kts | 83° |
| 2026-04-29 09:28 | 36.68587 | -51.93159 | 36983 ft | 503 kts | 83° |
| 2026-04-29 09:29 | 36.70047 | -51.84623 | 36987 ft | 503 kts | 83° |
| 2026-04-29 09:29 | 36.72216 | -51.71867 | 36991 ft | 504 kts | 84° |
| 2026-04-29 09:30 | 36.73665 | -51.63294 | 36998 ft | 506 kts | 83° |
| 2026-04-29 09:30 | 36.75115 | -51.54680 | 37000 ft | 509 kts | 84° |
| 2026-04-29 09:31 | 36.76566 | -51.46018 | 37010 ft | 511 kts | 84° |
| 2026-04-29 09:31 | 36.78013 | -51.37340 | 37009 ft | 511 kts | 84° |
| 2026-04-29 09:32 | 36.79452 | -51.28668 | 37010 ft | 510 kts | 84° |
| 2026-04-29 09:32 | 36.80875 | -51.20048 | 37007 ft | 511 kts | 84° |
| 2026-04-29 09:33 | 36.82308 | -51.11329 | 37015 ft | 514 kts | 84° |
| 2026-04-29 09:33 | 36.83741 | -51.02567 | 37018 ft | 516 kts | 84° |
| 2026-04-29 09:34 | 36.85173 | -50.93773 | 37022 ft | 517 kts | 84° |
| 2026-04-29 09:34 | 36.86597 | -50.84982 | 37024 ft | 517 kts | 84° |
| 2026-04-29 09:35 | 36.88007 | -50.76235 | 37022 ft | 516 kts | 84° |
| 2026-04-29 09:35 | 36.89427 | -50.67376 | 37022 ft | 518 kts | 84° |
| 2026-04-29 09:36 | 36.90828 | -50.58592 | 37032 ft | 520 kts | 84° |
| 2026-04-29 09:36 | 36.92240 | -50.49707 | 37036 ft | 522 kts | 84° |
| 2026-04-29 09:37 | 36.93648 | -50.40796 | 37038 ft | 522 kts | 84° |
| 2026-04-29 09:37 | 36.95045 | -50.31904 | 37032 ft | 521 kts | 84° |
| 2026-04-29 09:38 | 36.96437 | -50.23000 | 37036 ft | 522 kts | 84° |
| 2026-04-29 09:38 | 36.97826 | -50.14075 | 37044 ft | 524 kts | 84° |
| 2026-04-29 09:39 | 36.99204 | -50.05170 | 37043 ft | 525 kts | 84° |
| 2026-04-29 09:39 | 37.00738 | -49.96219 | 37062 ft | 528 kts | 80° |
| 2026-04-29 09:40 | 37.02490 | -49.87277 | 37058 ft | 530 kts | 81° |
| 2026-04-29 09:40 | 37.04223 | -49.78315 | 37062 ft | 530 kts | 80° |
| 2026-04-29 09:41 | 37.05964 | -49.69354 | 37051 ft | 530 kts | 81° |
| 2026-04-29 09:41 | 37.07684 | -49.60391 | 37058 ft | 529 kts | 80° |
| 2026-04-29 09:42 | 37.09409 | -49.51414 | 37057 ft | 530 kts | 80° |
| 2026-04-29 09:42 | 37.11124 | -49.42416 | 37066 ft | 532 kts | 80° |
| 2026-04-29 09:43 | 37.12839 | -49.33402 | 37068 ft | 533 kts | 80° |
| 2026-04-29 09:43 | 37.14541 | -49.24402 | 37069 ft | 534 kts | 80° |
| 2026-04-29 09:44 | 37.16251 | -49.15325 | 37075 ft | 536 kts | 80° |
| 2026-04-29 09:44 | 37.17960 | -49.06213 | 37081 ft | 536 kts | 80° |
| 2026-04-29 09:45 | 37.19659 | -48.97113 | 37078 ft | 535 kts | 80° |
| 2026-04-29 09:45 | 37.21347 | -48.88031 | 37080 ft | 535 kts | 80° |
| 2026-04-29 09:46 | 37.23029 | -48.78935 | 37081 ft | 534 kts | 80° |
| 2026-04-29 09:46 | 37.24694 | -48.69893 | 37083 ft | 536 kts | 80° |
| 2026-04-29 09:47 | 37.26371 | -48.60747 | 37082 ft | 538 kts | 80° |
| 2026-04-29 09:47 | 37.28043 | -48.51582 | 37091 ft | 539 kts | 80° |
| 2026-04-29 09:48 | 37.29714 | -48.42379 | 37093 ft | 540 kts | 80° |
| 2026-04-29 09:48 | 37.31376 | -48.33182 | 37095 ft | 540 kts | 80° |
| 2026-04-29 09:49 | 37.32751 | -48.25540 | 37092 ft | 539 kts | 79° |
| 2026-04-29 09:49 | 37.34665 | -48.14853 | 37092 ft | 539 kts | 79° |
| 2026-04-29 09:50 | 37.36040 | -48.07142 | 37096 ft | 541 kts | 79° |
| 2026-04-29 09:50 | 37.37670 | -47.97957 | 37099 ft | 542 kts | 79° |
| 2026-04-29 09:51 | 37.39316 | -47.88634 | 37099 ft | 543 kts | 79° |
| 2026-04-29 09:51 | 37.40936 | -47.79420 | 37102 ft | 544 kts | 79° |
| 2026-04-29 09:52 | 37.42564 | -47.70110 | 37104 ft | 544 kts | 79° |
| 2026-04-29 09:52 | 37.44182 | -47.60815 | 37103 ft | 543 kts | 79° |
| 2026-04-29 09:53 | 37.45790 | -47.51531 | 37105 ft | 543 kts | 79° |
| 2026-04-29 09:53 | 37.47394 | -47.42221 | 37104 ft | 544 kts | 79° |
| 2026-04-29 09:54 | 37.48994 | -47.32889 | 37109 ft | 546 kts | 79° |
| 2026-04-29 09:54 | 37.50582 | -47.23581 | 37110 ft | 547 kts | 79° |
| 2026-04-29 09:55 | 37.52171 | -47.14224 | 37112 ft | 546 kts | 79° |
| 2026-04-29 09:55 | 37.53748 | -47.04881 | 37108 ft | 545 kts | 79° |
| 2026-04-29 09:56 | 37.55316 | -46.95551 | 37109 ft | 544 kts | 79° |
| 2026-04-29 09:56 | 37.56875 | -46.86229 | 37111 ft | 544 kts | 79° |
| 2026-04-29 09:57 | 37.58420 | -46.76934 | 37116 ft | 546 kts | 79° |
| 2026-04-29 09:57 | 37.59983 | -46.67492 | 37123 ft | 548 kts | 79° |
| 2026-04-29 09:58 | 37.61530 | -46.58088 | 37123 ft | 547 kts | 78° |
| 2026-04-29 09:58 | 37.63058 | -46.48756 | 37121 ft | 546 kts | 78° |
| 2026-04-29 09:59 | 37.64588 | -46.39367 | 37123 ft | 546 kts | 78° |
| 2026-04-29 09:59 | 37.66108 | -46.29982 | 37124 ft | 546 kts | 78° |
| 2026-04-29 10:00 | 37.67622 | -46.20589 | 37122 ft | 545 kts | 78° |
| 2026-04-29 10:00 | 37.69129 | -46.11186 | 37123 ft | 547 kts | 78° |
| 2026-04-29 10:01 | 37.70634 | -46.01751 | 37133 ft | 548 kts | 78° |
| 2026-04-29 10:01 | 37.72133 | -45.92299 | 37126 ft | 548 kts | 78° |
| 2026-04-29 10:02 | 37.73609 | -45.82936 | 37120 ft | 545 kts | 78° |
| 2026-04-29 10:02 | 37.75084 | -45.73535 | 37117 ft | 545 kts | 78° |
| 2026-04-29 10:03 | 37.76553 | -45.64117 | 37121 ft | 546 kts | 78° |
| 2026-04-29 10:03 | 37.78016 | -45.54689 | 37129 ft | 547 kts | 78° |
| 2026-04-29 10:04 | 37.79472 | -45.45248 | 37121 ft | 547 kts | 78° |
| 2026-04-29 10:04 | 37.80921 | -45.35814 | 37121 ft | 546 kts | 78° |
| 2026-04-29 10:05 | 37.82359 | -45.26381 | 37130 ft | 545 kts | 78° |
| 2026-04-29 10:05 | 37.83787 | -45.16976 | 37130 ft | 544 kts | 78° |
| 2026-04-29 10:06 | 37.85197 | -45.07625 | 37129 ft | 544 kts | 78° |
| 2026-04-29 10:06 | 37.86607 | -44.98230 | 37135 ft | 544 kts | 78° |
| 2026-04-29 10:07 | 37.88011 | -44.88817 | 37127 ft | 544 kts | 77° |
| 2026-04-29 10:07 | 37.89410 | -44.79385 | 37133 ft | 545 kts | 77° |
| 2026-04-29 10:08 | 37.90800 | -44.69955 | 37130 ft | 544 kts | 77° |
| 2026-04-29 10:08 | 37.92179 | -44.60551 | 37124 ft | 542 kts | 77° |
| 2026-04-29 10:09 | 37.93541 | -44.51208 | 37137 ft | 543 kts | 77° |
| 2026-04-29 10:09 | 37.94906 | -44.41787 | 37130 ft | 544 kts | 77° |
| 2026-04-29 10:10 | 37.96266 | -44.32347 | 37135 ft | 544 kts | 77° |
| 2026-04-29 10:10 | 37.97620 | -44.22892 | 37133 ft | 545 kts | 77° |
| 2026-04-29 10:11 | 37.98957 | -44.13500 | 37130 ft | 544 kts | 77° |
| 2026-04-29 10:11 | 38.00291 | -44.04070 | 37127 ft | 542 kts | 77° |
| 2026-04-29 10:12 | 38.01617 | -43.94648 | 37134 ft | 542 kts | 77° |
| 2026-04-29 10:12 | 38.02934 | -43.85222 | 37134 ft | 543 kts | 77° |
| 2026-04-29 10:13 | 38.04248 | -43.75771 | 37134 ft | 544 kts | 77° |
| 2026-04-29 10:13 | 38.05554 | -43.66316 | 37131 ft | 544 kts | 77° |
| 2026-04-29 10:14 | 38.06853 | -43.56846 | 37130 ft | 544 kts | 77° |
| 2026-04-29 10:14 | 38.08136 | -43.47438 | 37126 ft | 543 kts | 77° |
| 2026-04-29 10:15 | 38.09415 | -43.38005 | 37132 ft | 542 kts | 77° |
| 2026-04-29 10:15 | 38.10688 | -43.28563 | 37130 ft | 543 kts | 77° |
| 2026-04-29 10:16 | 38.11742 | -43.20692 | 37127 ft | 544 kts | 77° |
| 2026-04-29 10:16 | 38.13217 | -43.09607 | 37125 ft | 545 kts | 77° |
| 2026-04-29 10:17 | 38.14474 | -43.00097 | 37122 ft | 544 kts | 77° |
| 2026-04-29 10:17 | 38.15718 | -42.90620 | 37125 ft | 544 kts | 77° |
| 2026-04-29 10:18 | 38.16955 | -42.81144 | 37116 ft | 544 kts | 77° |
| 2026-04-29 10:18 | 38.18178 | -42.71710 | 37116 ft | 544 kts | 76° |
| 2026-04-29 10:19 | 38.19400 | -42.62221 | 37118 ft | 544 kts | 76° |
| 2026-04-29 10:19 | 38.20613 | -42.52732 | 37119 ft | 543 kts | 76° |
| 2026-04-29 10:20 | 38.21818 | -42.43259 | 37123 ft | 542 kts | 76° |
| 2026-04-29 10:20 | 38.23016 | -42.33773 | 37120 ft | 543 kts | 76° |
| 2026-04-29 10:21 | 38.24208 | -42.24264 | 37117 ft | 545 kts | 76° |
| 2026-04-29 10:21 | 38.25393 | -42.14749 | 37119 ft | 544 kts | 76° |
| 2026-04-29 10:22 | 38.26569 | -42.05244 | 37122 ft | 544 kts | 76° |
| 2026-04-29 10:22 | 38.27737 | -41.95728 | 37129 ft | 543 kts | 76° |
| 2026-04-29 10:23 | 38.28890 | -41.86281 | 37122 ft | 543 kts | 76° |
| 2026-04-29 10:23 | 38.30043 | -41.76768 | 37121 ft | 545 kts | 76° |
| 2026-04-29 10:24 | 38.31193 | -41.67207 | 37115 ft | 546 kts | 76° |
| 2026-04-29 10:24 | 38.32335 | -41.57649 | 37118 ft | 546 kts | 76° |
| 2026-04-29 10:25 | 38.33471 | -41.48076 | 37121 ft | 546 kts | 76° |
| 2026-04-29 10:25 | 38.34596 | -41.38516 | 37119 ft | 545 kts | 76° |
| 2026-04-29 10:26 | 38.35706 | -41.29026 | 37113 ft | 544 kts | 76° |
| 2026-04-29 10:26 | 38.36814 | -41.19484 | 37116 ft | 545 kts | 76° |
| 2026-04-29 10:27 | 38.38467 | -41.05107 | 37121 ft | 548 kts | 76° |
| 2026-04-29 10:28 | 38.39561 | -40.95501 | 37108 ft | 546 kts | 76° |
| 2026-04-29 10:28 | 38.40642 | -40.85943 | 37117 ft | 543 kts | 76° |
| 2026-04-29 10:29 | 38.41707 | -40.76467 | 37114 ft | 543 kts | 76° |
| 2026-04-29 10:29 | 38.42767 | -40.66950 | 37116 ft | 542 kts | 76° |
| 2026-04-29 10:30 | 38.43820 | -40.57428 | 37109 ft | 541 kts | 76° |
| 2026-04-29 10:30 | 38.44866 | -40.47897 | 37118 ft | 541 kts | 76° |
| 2026-04-29 10:31 | 38.45902 | -40.38384 | 37097 ft | 542 kts | 76° |
| 2026-04-29 10:31 | 38.46925 | -40.28912 | 37107 ft | 541 kts | 76° |
| 2026-04-29 10:32 | 38.47945 | -40.19403 | 37106 ft | 541 kts | 76° |
| 2026-04-29 10:32 | 38.48956 | -40.09905 | 37108 ft | 539 kts | 76° |
| 2026-04-29 10:33 | 38.49973 | -40.00407 | 37108 ft | 538 kts | 74° |
| 2026-04-29 10:33 | 38.51727 | -39.91204 | 37110 ft | 533 kts | 69° |
| 2026-04-29 10:34 | 38.53536 | -39.81979 | 37109 ft | 537 kts | 70° |
| 2026-04-29 10:34 | 38.55309 | -39.72788 | 37108 ft | 534 kts | 69° |
| 2026-04-29 10:35 | 38.57105 | -39.63584 | 36826 ft | 534 kts | 69° |
| 2026-04-29 10:35 | 38.57986 | -39.58981 | 36962 ft | 533 kts | 68° |
| 2026-04-29 10:35 | 38.58879 | -39.54366 | 37089 ft | 537 kts | 68° |
| 2026-04-29 10:36 | 38.60679 | -39.44998 | 37101 ft | 546 kts | 69° |
| 2026-04-29 10:36 | 38.62466 | -39.35563 | 37104 ft | 544 kts | 68° |
| 2026-04-29 10:37 | 38.64260 | -39.26184 | 37103 ft | 542 kts | 68° |
| 2026-04-29 10:37 | 38.66024 | -39.16818 | 37096 ft | 542 kts | 68° |
| 2026-04-29 10:38 | 38.67796 | -39.07435 | 37099 ft | 543 kts | 68° |
| 2026-04-29 10:38 | 38.69548 | -38.98066 | 37091 ft | 545 kts | 68° |
| 2026-04-29 10:39 | 38.71308 | -38.88629 | 37085 ft | 544 kts | 68° |
| 2026-04-29 10:39 | 38.73053 | -38.79226 | 37090 ft | 542 kts | 68° |
| 2026-04-29 10:40 | 38.74784 | -38.69854 | 37090 ft | 541 kts | 68° |
| 2026-04-29 10:40 | 38.76514 | -38.60445 | 37079 ft | 543 kts | 68° |
| 2026-04-29 10:41 | 38.77947 | -38.52610 | 37087 ft | 543 kts | 68° |
| 2026-04-29 10:41 | 38.79668 | -38.43167 | 37074 ft | 545 kts | 68° |
| 2026-04-29 10:42 | 38.81382 | -38.33702 | 37082 ft | 544 kts | 68° |
| 2026-04-29 10:42 | 38.83086 | -38.24260 | 37075 ft | 543 kts | 68° |
| 2026-04-29 10:43 | 38.84777 | -38.14834 | 37078 ft | 542 kts | 68° |
| 2026-04-29 10:43 | 38.86452 | -38.05454 | 37069 ft | 541 kts | 68° |
| 2026-04-29 10:44 | 38.88126 | -37.96039 | 37053 ft | 541 kts | 68° |
| 2026-04-29 10:44 | 38.89794 | -37.86611 | 37067 ft | 542 kts | 69° |
| 2026-04-29 10:45 | 38.91458 | -37.77149 | 37064 ft | 544 kts | 69° |
| 2026-04-29 10:45 | 38.93115 | -37.67675 | 37063 ft | 543 kts | 69° |
| 2026-04-29 10:46 | 38.94763 | -37.58215 | 37057 ft | 541 kts | 69° |
| 2026-04-29 10:46 | 38.96396 | -37.48790 | 37054 ft | 540 kts | 69° |
| 2026-04-29 10:47 | 38.98021 | -37.39370 | 37055 ft | 539 kts | 69° |
| 2026-04-29 10:47 | 38.99629 | -37.29995 | 37045 ft | 541 kts | 69° |
| 2026-04-29 10:48 | 39.01243 | -37.20534 | 37046 ft | 541 kts | 69° |
| 2026-04-29 10:48 | 39.02851 | -37.11060 | 37041 ft | 541 kts | 69° |
| 2026-04-29 10:49 | 39.04444 | -37.01616 | 37042 ft | 539 kts | 69° |
| 2026-04-29 10:49 | 39.06025 | -36.92212 | 37039 ft | 538 kts | 69° |
| 2026-04-29 10:50 | 39.07595 | -36.82815 | 37018 ft | 537 kts | 69° |
| 2026-04-29 10:50 | 39.09160 | -36.73405 | 37029 ft | 538 kts | 70° |
| 2026-04-29 10:51 | 39.10707 | -36.64044 | 37031 ft | 538 kts | 70° |
| 2026-04-29 10:51 | 39.12259 | -36.54608 | 37026 ft | 539 kts | 70° |
| 2026-04-29 10:52 | 39.13801 | -36.45175 | 37023 ft | 536 kts | 70° |
| 2026-04-29 10:52 | 39.15327 | -36.35801 | 37017 ft | 534 kts | 70° |
| 2026-04-29 10:53 | 39.16842 | -36.26445 | 37019 ft | 533 kts | 70° |
| 2026-04-29 10:53 | 39.18351 | -36.17071 | 37010 ft | 534 kts | 70° |
| 2026-04-29 10:54 | 39.19851 | -36.07701 | 37005 ft | 534 kts | 71° |
| 2026-04-29 10:54 | 39.21345 | -35.98315 | 37003 ft | 534 kts | 71° |
| 2026-04-29 10:55 | 39.22829 | -35.88940 | 37001 ft | 533 kts | 71° |
| 2026-04-29 10:55 | 39.24304 | -35.79582 | 36990 ft | 531 kts | 71° |
| 2026-04-29 10:56 | 39.25764 | -35.70255 | 36991 ft | 530 kts | 71° |
| 2026-04-29 10:56 | 39.27212 | -35.60963 | 36985 ft | 528 kts | 71° |
| 2026-04-29 10:57 | 39.28640 | -35.51746 | 36984 ft | 526 kts | 72° |
| 2026-04-29 10:57 | 39.30067 | -35.42480 | 36980 ft | 525 kts | 72° |
| 2026-04-29 10:58 | 39.31482 | -35.33245 | 36979 ft | 524 kts | 72° |
| 2026-04-29 10:58 | 39.32888 | -35.24021 | 36971 ft | 523 kts | 72° |
| 2026-04-29 10:59 | 39.34289 | -35.14770 | 36966 ft | 524 kts | 73° |
| 2026-04-29 10:59 | 39.35679 | -35.05547 | 36953 ft | 523 kts | 73° |
| 2026-04-29 11:00 | 39.37053 | -34.96375 | 36952 ft | 522 kts | 73° |
| 2026-04-29 11:00 | 39.38421 | -34.87192 | 36958 ft | 520 kts | 73° |
| 2026-04-29 11:01 | 39.39778 | -34.78029 | 36957 ft | 518 kts | 73° |
| 2026-04-29 11:01 | 39.41124 | -34.68892 | 36959 ft | 517 kts | 74° |
| 2026-04-29 11:02 | 39.42461 | -34.59760 | 36956 ft | 517 kts | 74° |
| 2026-04-29 11:02 | 39.43794 | -34.50608 | 36942 ft | 517 kts | 74° |
| 2026-04-29 11:03 | 39.45109 | -34.41522 | 36946 ft | 517 kts | 75° |
| 2026-04-29 11:03 | 39.46428 | -34.32359 | 36943 ft | 517 kts | 75° |
| 2026-04-29 11:04 | 39.47739 | -34.23200 | 36928 ft | 518 kts | 75° |
| 2026-04-29 11:04 | 39.49044 | -34.14025 | 36936 ft | 518 kts | 75° |
| 2026-04-29 11:05 | 39.50339 | -34.04869 | 36924 ft | 516 kts | 75° |
| 2026-04-29 11:05 | 39.51620 | -33.95751 | 36920 ft | 514 kts | 76° |
| 2026-04-29 11:06 | 39.52893 | -33.86649 | 36924 ft | 513 kts | 76° |
| 2026-04-29 11:06 | 39.54148 | -33.77610 | 36916 ft | 512 kts | 76° |
| 2026-04-29 11:07 | 39.55402 | -33.68528 | 36906 ft | 512 kts | 76° |
| 2026-04-29 11:07 | 39.56648 | -33.59452 | 36913 ft | 511 kts | 76° |
| 2026-04-29 11:08 | 39.57886 | -33.50378 | 36907 ft | 511 kts | 77° |
| 2026-04-29 11:08 | 39.59117 | -33.41305 | 36891 ft | 511 kts | 77° |
| 2026-04-29 11:09 | 39.60341 | -33.32223 | 36889 ft | 511 kts | 77° |
| 2026-04-29 11:09 | 39.61556 | -33.23151 | 36886 ft | 510 kts | 77° |
| 2026-04-29 11:10 | 39.62764 | -33.14082 | 36882 ft | 510 kts | 77° |
| 2026-04-29 11:10 | 39.63963 | -33.05017 | 36873 ft | 509 kts | 77° |
| 2026-04-29 11:11 | 39.65144 | -32.96040 | 36869 ft | 507 kts | 77° |
| 2026-04-29 11:11 | 39.66321 | -32.87034 | 36862 ft | 505 kts | 78° |
| 2026-04-29 11:12 | 39.67487 | -32.78055 | 36855 ft | 504 kts | 78° |
| 2026-04-29 11:12 | 39.68645 | -32.69085 | 36855 ft | 504 kts | 78° |
| 2026-04-29 11:13 | 39.69797 | -32.60096 | 36853 ft | 504 kts | 78° |
| 2026-04-29 11:13 | 39.70942 | -32.51113 | 36853 ft | 504 kts | 78° |
| 2026-04-29 11:14 | 39.72080 | -32.42129 | 36846 ft | 504 kts | 78° |
| 2026-04-29 11:14 | 39.73207 | -32.33163 | 36847 ft | 502 kts | 78° |
| 2026-04-29 11:15 | 39.74318 | -32.24276 | 36840 ft | 501 kts | 79° |
| 2026-04-29 11:15 | 39.75428 | -32.15338 | 36839 ft | 500 kts | 79° |
| 2026-04-29 11:16 | 39.76528 | -32.06427 | 36838 ft | 499 kts | 79° |
| 2026-04-29 11:16 | 39.77621 | -31.97510 | 36840 ft | 500 kts | 79° |
| 2026-04-29 11:17 | 39.78708 | -31.88585 | 36836 ft | 501 kts | 79° |
| 2026-04-29 11:17 | 39.79791 | -31.79631 | 36836 ft | 501 kts | 79° |
| 2026-04-29 11:18 | 39.80864 | -31.70701 | 36837 ft | 499 kts | 79° |
| 2026-04-29 11:18 | 39.81919 | -31.61860 | 36831 ft | 497 kts | 80° |
| 2026-04-29 11:19 | 39.82974 | -31.52969 | 36833 ft | 497 kts | 80° |
| 2026-04-29 11:19 | 39.84022 | -31.44071 | 36833 ft | 498 kts | 80° |
| 2026-04-29 11:20 | 39.85067 | -31.35134 | 36831 ft | 499 kts | 80° |
| 2026-04-29 11:20 | 39.86101 | -31.26234 | 36831 ft | 496 kts | 81° |
| 2026-04-29 11:21 | 39.87126 | -31.17348 | 36829 ft | 495 kts | 81° |
| 2026-04-29 11:21 | 39.88142 | -31.08481 | 36824 ft | 495 kts | 81° |
| 2026-04-29 11:22 | 39.89151 | -30.99613 | 36827 ft | 495 kts | 81° |
| 2026-04-29 11:22 | 39.90147 | -30.90800 | 36830 ft | 495 kts | 81° |
| 2026-04-29 11:23 | 39.91143 | -30.81918 | 36831 ft | 496 kts | 81° |
| 2026-04-29 11:23 | 39.92133 | -30.73036 | 36819 ft | 494 kts | 81° |
| 2026-04-29 11:24 | 39.93113 | -30.64174 | 36822 ft | 493 kts | 82° |
| 2026-04-29 11:24 | 39.94083 | -30.55334 | 36817 ft | 493 kts | 82° |
| 2026-04-29 11:25 | 39.95047 | -30.46499 | 36822 ft | 492 kts | 82° |
| 2026-04-29 11:25 | 39.95998 | -30.37713 | 36826 ft | 492 kts | 82° |
| 2026-04-29 11:26 | 39.97419 | -30.24464 | 36821 ft | 492 kts | 82° |
| 2026-04-29 11:26 | 39.98357 | -30.15632 | 36819 ft | 492 kts | 83° |
| 2026-04-29 11:27 | 39.99289 | -30.06800 | 36823 ft | 492 kts | 83° |
| 2026-04-29 11:27 | 40.00288 | -29.97967 | 36813 ft | 492 kts | 79° |
| 2026-04-29 11:28 | 40.01569 | -29.89204 | 36815 ft | 492 kts | 80° |
| 2026-04-29 11:28 | 40.02816 | -29.80443 | 36806 ft | 489 kts | 80° |
| 2026-04-29 11:29 | 40.04063 | -29.71780 | 36802 ft | 487 kts | 80° |
| 2026-04-29 11:29 | 40.05290 | -29.63104 | 36805 ft | 486 kts | 81° |
| 2026-04-29 11:30 | 40.06522 | -29.54406 | 36807 ft | 488 kts | 81° |
| 2026-04-29 11:30 | 40.07747 | -29.45681 | 36805 ft | 488 kts | 81° |
| 2026-04-29 11:31 | 40.08966 | -29.36959 | 36802 ft | 487 kts | 81° |
| 2026-04-29 11:31 | 40.10171 | -29.28279 | 36794 ft | 486 kts | 81° |
| 2026-04-29 11:32 | 40.11370 | -29.19601 | 36797 ft | 484 kts | 81° |
| 2026-04-29 11:32 | 40.12552 | -29.10992 | 36795 ft | 484 kts | 82° |
| 2026-04-29 11:33 | 40.13738 | -29.02307 | 36797 ft | 485 kts | 82° |
| 2026-04-29 11:33 | 40.14719 | -28.95080 | 36796 ft | 486 kts | 82° |
| 2026-04-29 11:34 | 40.15895 | -28.86373 | 36796 ft | 486 kts | 82° |
| 2026-04-29 11:34 | 40.17063 | -28.77674 | 36792 ft | 485 kts | 82° |
| 2026-04-29 11:35 | 40.18222 | -28.68992 | 36795 ft | 484 kts | 83° |
| 2026-04-29 11:35 | 40.19372 | -28.60325 | 36796 ft | 483 kts | 83° |
| 2026-04-29 11:36 | 40.20515 | -28.51661 | 36793 ft | 482 kts | 83° |
| 2026-04-29 11:36 | 40.21642 | -28.43058 | 36793 ft | 483 kts | 83° |
| 2026-04-29 11:37 | 40.22773 | -28.34383 | 36792 ft | 484 kts | 83° |
| 2026-04-29 11:37 | 40.23899 | -28.25694 | 36790 ft | 485 kts | 83° |
| 2026-04-29 11:38 | 40.25020 | -28.16984 | 36795 ft | 484 kts | 83° |
| 2026-04-29 11:38 | 40.26131 | -28.08307 | 36791 ft | 482 kts | 83° |
| 2026-04-29 11:39 | 40.27231 | -27.99653 | 36789 ft | 481 kts | 84° |
| 2026-04-29 11:39 | 40.28322 | -27.91019 | 36794 ft | 480 kts | 84° |
| 2026-04-29 11:40 | 40.29407 | -27.82376 | 36786 ft | 481 kts | 84° |
| 2026-04-29 11:40 | 40.30480 | -27.73784 | 36787 ft | 481 kts | 84° |
| 2026-04-29 11:41 | 40.31554 | -27.65121 | 36789 ft | 482 kts | 84° |
| 2026-04-29 11:41 | 40.32621 | -27.56472 | 36785 ft | 480 kts | 84° |
| 2026-04-29 11:42 | 40.33677 | -27.47845 | 36778 ft | 479 kts | 84° |
| 2026-04-29 11:42 | 40.34726 | -27.39223 | 36791 ft | 479 kts | 84° |
| 2026-04-29 11:43 | 40.35770 | -27.30591 | 36787 ft | 479 kts | 84° |
| 2026-04-29 11:43 | 40.36806 | -27.21965 | 36786 ft | 479 kts | 84° |
| 2026-04-29 11:44 | 40.37829 | -27.13394 | 36790 ft | 479 kts | 84° |
| 2026-04-29 11:44 | 40.38850 | -27.04779 | 36788 ft | 477 kts | 84° |
| 2026-04-29 11:45 | 40.39865 | -26.96159 | 36784 ft | 477 kts | 84° |
| 2026-04-29 11:45 | 40.40873 | -26.87550 | 36785 ft | 477 kts | 84° |
| 2026-04-29 11:46 | 40.41874 | -26.78935 | 36785 ft | 478 kts | 84° |
| 2026-04-29 11:46 | 40.42869 | -26.70314 | 36787 ft | 478 kts | 84° |
| 2026-04-29 11:47 | 40.43854 | -26.61730 | 36781 ft | 478 kts | 85° |
| 2026-04-29 11:47 | 40.44836 | -26.53111 | 36785 ft | 476 kts | 85° |
| 2026-04-29 11:48 | 40.45809 | -26.44510 | 36788 ft | 476 kts | 85° |
| 2026-04-29 11:48 | 40.46777 | -26.35890 | 36785 ft | 477 kts | 85° |
| 2026-04-29 11:49 | 40.47740 | -26.27260 | 36787 ft | 477 kts | 85° |
| 2026-04-29 11:49 | 40.48692 | -26.18672 | 36791 ft | 478 kts | 85° |
| 2026-04-29 11:50 | 40.49641 | -26.10046 | 36776 ft | 476 kts | 85° |
| 2026-04-29 11:50 | 40.50583 | -26.01431 | 36777 ft | 475 kts | 85° |
| 2026-04-29 11:51 | 40.51515 | -25.92839 | 36790 ft | 475 kts | 85° |
| 2026-04-29 11:51 | 40.52442 | -25.84230 | 36785 ft | 476 kts | 85° |
| 2026-04-29 11:52 | 40.52904 | -25.79913 | 36923 ft | 477 kts | 85° |
| 2026-04-29 11:52 | 40.53365 | -25.75599 | 37332 ft | 476 kts | 85° |
| 2026-04-29 11:52 | 40.53818 | -25.71343 | 37704 ft | 475 kts | 85° |
| 2026-04-29 11:52 | 40.54273 | -25.67047 | 38064 ft | 474 kts | 84° |
| 2026-04-29 11:53 | 40.54726 | -25.62757 | 38419 ft | 474 kts | 84° |
| 2026-04-29 11:53 | 40.55177 | -25.58467 | 38652 ft | 474 kts | 84° |
| 2026-04-29 11:53 | 40.55629 | -25.54157 | 38768 ft | 478 kts | 84° |
| 2026-04-29 11:53 | 40.56082 | -25.49815 | 38783 ft | 481 kts | 84° |
| 2026-04-29 11:54 | 40.56984 | -25.41152 | 38786 ft | 475 kts | 84° |
| 2026-04-29 11:54 | 40.57866 | -25.32577 | 38796 ft | 472 kts | 85° |
| 2026-04-29 11:55 | 40.58744 | -25.23999 | 38791 ft | 473 kts | 85° |
| 2026-04-29 11:55 | 40.59614 | -25.15432 | 38799 ft | 471 kts | 85° |
| 2026-04-29 11:56 | 40.60471 | -25.06932 | 38806 ft | 472 kts | 85° |
| 2026-04-29 11:56 | 40.61327 | -24.98369 | 38808 ft | 472 kts | 86° |
| 2026-04-29 11:57 | 40.62179 | -24.89799 | 38814 ft | 473 kts | 86° |
| 2026-04-29 11:57 | 40.63026 | -24.81198 | 38821 ft | 475 kts | 85° |
| 2026-04-29 11:58 | 40.63869 | -24.72564 | 38827 ft | 475 kts | 86° |
| 2026-04-29 11:58 | 40.64708 | -24.63913 | 38825 ft | 476 kts | 86° |
| 2026-04-29 11:59 | 40.65542 | -24.55246 | 38834 ft | 478 kts | 86° |
| 2026-04-29 11:59 | 40.66367 | -24.46604 | 38838 ft | 480 kts | 86° |
| 2026-04-29 12:00 | 40.67194 | -24.37871 | 38848 ft | 480 kts | 86° |
| 2026-04-29 12:00 | 40.68012 | -24.29153 | 38851 ft | 479 kts | 86° |
| 2026-04-29 12:01 | 40.68824 | -24.20421 | 38854 ft | 480 kts | 86° |
| 2026-04-29 12:01 | 40.69631 | -24.11702 | 38856 ft | 479 kts | 86° |
| 2026-04-29 12:02 | 40.70428 | -24.02975 | 38859 ft | 481 kts | 86° |
| 2026-04-29 12:02 | 40.71226 | -23.94196 | 38876 ft | 482 kts | 86° |
| 2026-04-29 12:03 | 40.72017 | -23.85401 | 38880 ft | 483 kts | 86° |
| 2026-04-29 12:03 | 40.72797 | -23.76670 | 38877 ft | 483 kts | 86° |
| 2026-04-29 12:04 | 40.73574 | -23.67875 | 38888 ft | 482 kts | 86° |
| 2026-04-29 12:04 | 40.74344 | -23.59098 | 38892 ft | 481 kts | 86° |
| 2026-04-29 12:05 | 40.75105 | -23.50337 | 38886 ft | 483 kts | 86° |
| 2026-04-29 12:05 | 40.75866 | -23.41495 | 38892 ft | 486 kts | 86° |
| 2026-04-29 12:06 | 40.76617 | -23.32696 | 38895 ft | 486 kts | 86° |
| 2026-04-29 12:06 | 40.77366 | -23.23839 | 38892 ft | 486 kts | 86° |
| 2026-04-29 12:07 | 40.78107 | -23.14992 | 38905 ft | 485 kts | 86° |
| 2026-04-29 12:07 | 40.78841 | -23.06151 | 38904 ft | 484 kts | 86° |
| 2026-04-29 12:08 | 40.79565 | -22.97329 | 38901 ft | 484 kts | 86° |
| 2026-04-29 12:08 | 40.80285 | -22.88505 | 38904 ft | 484 kts | 86° |
| 2026-04-29 12:09 | 40.80998 | -22.79648 | 38914 ft | 485 kts | 86° |
| 2026-04-29 12:09 | 40.81706 | -22.70785 | 38919 ft | 486 kts | 86° |
| 2026-04-29 12:10 | 40.82403 | -22.61969 | 38924 ft | 485 kts | 86° |
| 2026-04-29 12:10 | 40.83097 | -22.53112 | 38920 ft | 485 kts | 86° |
| 2026-04-29 12:11 | 40.83783 | -22.44249 | 38920 ft | 485 kts | 86° |
| 2026-04-29 12:11 | 40.84464 | -22.35387 | 38921 ft | 485 kts | 86° |
| 2026-04-29 12:12 | 40.85138 | -22.26514 | 38920 ft | 486 kts | 86° |
| 2026-04-29 12:12 | 40.85807 | -22.17612 | 38923 ft | 487 kts | 86° |
| 2026-04-29 12:13 | 40.86465 | -22.08765 | 38924 ft | 486 kts | 86° |
| 2026-04-29 12:13 | 40.87120 | -21.99872 | 38923 ft | 485 kts | 86° |
| 2026-04-29 12:14 | 40.87766 | -21.90992 | 38927 ft | 485 kts | 86° |
| 2026-04-29 12:14 | 40.88406 | -21.82121 | 38926 ft | 484 kts | 86° |
| 2026-04-29 12:15 | 40.89037 | -21.73255 | 38930 ft | 485 kts | 86° |
| 2026-04-29 12:15 | 40.89664 | -21.64363 | 38929 ft | 487 kts | 86° |
| 2026-04-29 12:16 | 40.90286 | -21.55450 | 38934 ft | 487 kts | 86° |
| 2026-04-29 12:16 | 40.90900 | -21.46527 | 38935 ft | 487 kts | 86° |
| 2026-04-29 12:17 | 40.91508 | -21.37606 | 38933 ft | 486 kts | 86° |
| 2026-04-29 12:17 | 40.92104 | -21.28760 | 38929 ft | 486 kts | 86° |
| 2026-04-29 12:18 | 40.92697 | -21.19853 | 38935 ft | 485 kts | 86° |
| 2026-04-29 12:18 | 40.93283 | -21.10952 | 38935 ft | 485 kts | 86° |
| 2026-04-29 12:19 | 40.93861 | -21.02057 | 38933 ft | 486 kts | 86° |
| 2026-04-29 12:19 | 40.94435 | -20.93118 | 38938 ft | 488 kts | 86° |
| 2026-04-29 12:20 | 40.95001 | -20.84209 | 38947 ft | 489 kts | 86° |
| 2026-04-29 12:20 | 40.95561 | -20.75264 | 38943 ft | 487 kts | 86° |
| 2026-04-29 12:21 | 40.96114 | -20.66338 | 38939 ft | 486 kts | 86° |
| 2026-04-29 12:21 | 40.96658 | -20.57428 | 38938 ft | 485 kts | 86° |
| 2026-04-29 12:22 | 40.97197 | -20.48505 | 38937 ft | 487 kts | 86° |
| 2026-04-29 12:22 | 40.97729 | -20.39554 | 38939 ft | 488 kts | 86° |
| 2026-04-29 12:23 | 40.98253 | -20.30646 | 38946 ft | 489 kts | 86° |
| 2026-04-29 12:23 | 40.98774 | -20.21668 | 38950 ft | 489 kts | 86° |
| 2026-04-29 12:24 | 40.99286 | -20.12705 | 38937 ft | 488 kts | 86° |
| 2026-04-29 12:24 | 40.99792 | -20.03748 | 38936 ft | 487 kts | 86° |
| 2026-04-29 12:25 | 41.00072 | -19.96316 | 38944 ft | 486 kts | 89° |
| 2026-04-29 12:26 | 41.00368 | -19.82847 | 38943 ft | 489 kts | 89° |
| 2026-04-29 12:26 | 41.00559 | -19.72392 | 38947 ft | 489 kts | 89° |
| 2026-04-29 12:27 | 41.00710 | -19.64847 | 38951 ft | 489 kts | 89° |
| 2026-04-29 12:27 | 41.00870 | -19.55846 | 38943 ft | 489 kts | 89° |
| 2026-04-29 12:28 | 41.01027 | -19.46909 | 38935 ft | 489 kts | 89° |
| 2026-04-29 12:28 | 41.01176 | -19.37907 | 38934 ft | 488 kts | 89° |
| 2026-04-29 12:29 | 41.01319 | -19.28898 | 38932 ft | 490 kts | 89° |
| 2026-04-29 12:29 | 41.01456 | -19.19874 | 38939 ft | 490 kts | 89° |
| 2026-04-29 12:30 | 41.01584 | -19.10841 | 38938 ft | 491 kts | 89° |
| 2026-04-29 12:30 | 41.01706 | -19.01853 | 38934 ft | 491 kts | 89° |
| 2026-04-29 12:31 | 41.01822 | -18.92757 | 38933 ft | 491 kts | 89° |
| 2026-04-29 12:31 | 41.01929 | -18.83783 | 38936 ft | 491 kts | 89° |
| 2026-04-29 12:32 | 41.02030 | -18.74733 | 38941 ft | 493 kts | 89° |
| 2026-04-29 12:32 | 41.02125 | -18.65631 | 38931 ft | 495 kts | 89° |
| 2026-04-29 12:33 | 41.02212 | -18.56571 | 38939 ft | 494 kts | 89° |
| 2026-04-29 12:33 | 41.02292 | -18.47460 | 38934 ft | 494 kts | 89° |
| 2026-04-29 12:34 | 41.02365 | -18.38366 | 38934 ft | 494 kts | 89° |
| 2026-04-29 12:34 | 41.02431 | -18.29281 | 38934 ft | 493 kts | 89° |
| 2026-04-29 12:35 | 41.02490 | -18.20188 | 38931 ft | 493 kts | 89° |
| 2026-04-29 12:35 | 41.02541 | -18.11156 | 38927 ft | 493 kts | 89° |
| 2026-04-29 12:36 | 41.02585 | -18.02049 | 38930 ft | 496 kts | 89° |
| 2026-04-29 12:36 | 41.02623 | -17.92894 | 38941 ft | 497 kts | 89° |
| 2026-04-29 12:37 | 41.02653 | -17.83728 | 38930 ft | 497 kts | 89° |
| 2026-04-29 12:37 | 41.02676 | -17.74574 | 38931 ft | 496 kts | 89° |
| 2026-04-29 12:38 | 41.02692 | -17.65450 | 38931 ft | 495 kts | 89° |
| 2026-04-29 12:38 | 41.02701 | -17.56320 | 38925 ft | 496 kts | 89° |
| 2026-04-29 12:39 | 41.02702 | -17.47168 | 38929 ft | 497 kts | 89° |
| 2026-04-29 12:39 | 41.02696 | -17.37996 | 38927 ft | 499 kts | 89° |
| 2026-04-29 12:40 | 41.02683 | -17.28818 | 38925 ft | 497 kts | 89° |
| 2026-04-29 12:40 | 41.02663 | -17.19732 | 38923 ft | 497 kts | 89° |
| 2026-04-29 12:41 | 41.02635 | -17.10589 | 38922 ft | 496 kts | 89° |
| 2026-04-29 12:41 | 41.02601 | -17.01441 | 38918 ft | 497 kts | 89° |
| 2026-04-29 12:42 | 41.02558 | -16.92277 | 38922 ft | 497 kts | 89° |
| 2026-04-29 12:42 | 41.02509 | -16.83110 | 38915 ft | 498 kts | 89° |
| 2026-04-29 12:43 | 41.02452 | -16.73927 | 38920 ft | 499 kts | 89° |
| 2026-04-29 12:43 | 41.02388 | -16.64738 | 38917 ft | 499 kts | 89° |
| 2026-04-29 12:44 | 41.02317 | -16.55540 | 38912 ft | 498 kts | 89° |
| 2026-04-29 12:44 | 41.02239 | -16.46438 | 38910 ft | 497 kts | 89° |
| 2026-04-29 12:45 | 41.02153 | -16.37289 | 38909 ft | 497 kts | 89° |
| 2026-04-29 12:45 | 41.02061 | -16.28140 | 38906 ft | 498 kts | 89° |
| 2026-04-29 12:46 | 41.01960 | -16.18962 | 38913 ft | 499 kts | 89° |
| 2026-04-29 12:46 | 41.01852 | -16.09756 | 38910 ft | 501 kts | 89° |
| 2026-04-29 12:47 | 41.01737 | -16.00516 | 38908 ft | 501 kts | 90° |
| 2026-04-29 12:47 | 41.01614 | -15.91290 | 38901 ft | 500 kts | 90° |
| 2026-04-29 12:48 | 41.01485 | -15.82156 | 38898 ft | 499 kts | 90° |
| 2026-04-29 12:48 | 41.01348 | -15.72956 | 38900 ft | 500 kts | 90° |
| 2026-04-29 12:49 | 41.01203 | -15.63724 | 38906 ft | 503 kts | 90° |
| 2026-04-29 12:49 | 41.01050 | -15.54460 | 38902 ft | 503 kts | 90° |
| 2026-04-29 12:50 | 41.00890 | -15.45208 | 38907 ft | 502 kts | 90° |
| 2026-04-29 12:50 | 41.00723 | -15.35977 | 38899 ft | 501 kts | 90° |
| 2026-04-29 12:51 | 41.00548 | -15.26747 | 38894 ft | 501 kts | 90° |
| 2026-04-29 12:51 | 41.00366 | -15.17506 | 38908 ft | 503 kts | 90° |
| 2026-04-29 12:52 | 41.00177 | -15.08276 | 38904 ft | 504 kts | 90° |
| 2026-04-29 12:52 | 41.00053 | -14.98997 | 38871 ft | 503 kts | 85° |
| 2026-04-29 12:53 | 41.00726 | -14.89803 | 38494 ft | 496 kts | 84° |
| 2026-04-29 12:53 | 41.01062 | -14.85316 | 38614 ft | 485 kts | 85° |
| 2026-04-29 12:53 | 41.01344 | -14.80866 | 38742 ft | 486 kts | 85° |
| 2026-04-29 12:53 | 41.01631 | -14.76389 | 38875 ft | 490 kts | 85° |
| 2026-04-29 12:54 | 41.01951 | -14.71879 | 38989 ft | 494 kts | 84° |
| 2026-04-29 12:54 | 41.02584 | -14.62766 | 38994 ft | 495 kts | 85° |
| 2026-04-29 12:55 | 41.03176 | -14.53777 | 38991 ft | 492 kts | 85° |
| 2026-04-29 12:55 | 41.03783 | -14.44753 | 38997 ft | 492 kts | 85° |
| 2026-04-29 12:56 | 41.04369 | -14.35727 | 38988 ft | 492 kts | 85° |
| 2026-04-29 12:56 | 41.04958 | -14.26688 | 38990 ft | 492 kts | 85° |
| 2026-04-29 12:57 | 41.05535 | -14.17644 | 38990 ft | 492 kts | 85° |
| 2026-04-29 12:57 | 41.06107 | -14.08606 | 38988 ft | 492 kts | 85° |
| 2026-04-29 12:58 | 41.06667 | -13.99622 | 39000 ft | 492 kts | 85° |
| 2026-04-29 12:58 | 41.07225 | -13.90574 | 38994 ft | 493 kts | 85° |
| 2026-04-29 12:59 | 41.07776 | -13.81519 | 39002 ft | 493 kts | 85° |
| 2026-04-29 12:59 | 41.08319 | -13.72459 | 39003 ft | 493 kts | 85° |
| 2026-04-29 13:00 | 41.08766 | -13.64933 | 38999 ft | 493 kts | 85° |
| 2026-04-29 13:00 | 41.09386 | -13.54325 | 39005 ft | 493 kts | 86° |
| 2026-04-29 13:01 | 41.09909 | -13.45252 | 39006 ft | 494 kts | 86° |
| 2026-04-29 13:01 | 41.10423 | -13.36215 | 39007 ft | 494 kts | 86° |
| 2026-04-29 13:02 | 41.10932 | -13.27134 | 38998 ft | 494 kts | 86° |
| 2026-04-29 13:02 | 41.11435 | -13.18039 | 39009 ft | 494 kts | 86° |
| 2026-04-29 13:03 | 41.11930 | -13.08936 | 39385 ft | 497 kts | 85° |
| 2026-04-29 13:03 | 41.12176 | -13.04386 | 39265 ft | 505 kts | 85° |
| 2026-04-29 13:03 | 41.12425 | -12.99727 | 39149 ft | 506 kts | 85° |
| 2026-04-29 13:03 | 41.12672 | -12.95085 | 39029 ft | 503 kts | 85° |
| 2026-04-29 13:04 | 41.12915 | -12.90449 | 39187 ft | 504 kts | 85° |
| 2026-04-29 13:04 | 41.13157 | -12.85822 | 39514 ft | 502 kts | 85° |
| 2026-04-29 13:04 | 41.13397 | -12.81202 | 39790 ft | 502 kts | 86° |
| 2026-04-29 13:04 | 41.13635 | -12.76575 | 40052 ft | 502 kts | 86° |
| 2026-04-29 13:05 | 41.13871 | -12.71946 | 40314 ft | 502 kts | 86° |
| 2026-04-29 13:05 | 41.14105 | -12.67328 | 40572 ft | 502 kts | 86° |
| 2026-04-29 13:05 | 41.14335 | -12.62757 | 40770 ft | 503 kts | 86° |
| 2026-04-29 13:06 | 41.14798 | -12.53434 | 40855 ft | 506 kts | 86° |
| 2026-04-29 13:06 | 41.15250 | -12.44167 | 40857 ft | 501 kts | 86° |
| 2026-04-29 13:07 | 41.15693 | -12.34950 | 40851 ft | 499 kts | 86° |
| 2026-04-29 13:07 | 41.16127 | -12.25761 | 40850 ft | 499 kts | 86° |
| 2026-04-29 13:08 | 41.16551 | -12.16607 | 40844 ft | 500 kts | 86° |
| 2026-04-29 13:08 | 41.16971 | -12.07405 | 40842 ft | 500 kts | 86° |
| 2026-04-29 13:09 | 41.17385 | -11.98183 | 40843 ft | 501 kts | 86° |
| 2026-04-29 13:09 | 41.17791 | -11.88943 | 40842 ft | 501 kts | 86° |
| 2026-04-29 13:10 | 41.18190 | -11.79705 | 40846 ft | 501 kts | 86° |
| 2026-04-29 13:10 | 41.18582 | -11.70461 | 40843 ft | 502 kts | 87° |
| 2026-04-29 13:11 | 41.18967 | -11.61214 | 40843 ft | 501 kts | 87° |
| 2026-04-29 13:11 | 41.19343 | -11.51995 | 40837 ft | 499 kts | 87° |
| 2026-04-29 13:12 | 41.19708 | -11.42867 | 40824 ft | 498 kts | 87° |
| 2026-04-29 13:12 | 41.20068 | -11.33681 | 40823 ft | 498 kts | 87° |
| 2026-04-29 13:13 | 41.20421 | -11.24485 | 40826 ft | 499 kts | 87° |
| 2026-04-29 13:13 | 41.20768 | -11.15270 | 40833 ft | 500 kts | 87° |
| 2026-04-29 13:14 | 41.21108 | -11.06038 | 40831 ft | 501 kts | 87° |
| 2026-04-29 13:14 | 41.21441 | -10.96785 | 40828 ft | 501 kts | 87° |
| 2026-04-29 13:15 | 41.21765 | -10.87563 | 40823 ft | 499 kts | 88° |
| 2026-04-29 13:15 | 41.22080 | -10.78424 | 40819 ft | 498 kts | 88° |
| 2026-04-29 13:16 | 41.22388 | -10.69240 | 40818 ft | 497 kts | 88° |
| 2026-04-29 13:16 | 41.22689 | -10.60068 | 40812 ft | 498 kts | 88° |
| 2026-04-29 13:17 | 41.22984 | -10.50869 | 40818 ft | 499 kts | 88° |
| 2026-04-29 13:17 | 41.23271 | -10.41643 | 40835 ft | 500 kts | 88° |
| 2026-04-29 13:18 | 41.23505 | -10.33966 | 40820 ft | 500 kts | 88° |
| 2026-04-29 13:18 | 41.23824 | -10.23231 | 40822 ft | 499 kts | 88° |
| 2026-04-29 13:19 | 41.24089 | -10.14028 | 40811 ft | 498 kts | 88° |
| 2026-04-29 13:19 | 41.24305 | -10.06341 | 40806 ft | 497 kts | 88° |
| 2026-04-29 13:20 | 41.24555 | -9.97203 | 40813 ft | 498 kts | 88° |
| 2026-04-29 13:20 | 41.24800 | -9.87982 | 40817 ft | 500 kts | 89° |
| 2026-04-29 13:21 | 41.25038 | -9.78733 | 40816 ft | 501 kts | 89° |
| 2026-04-29 13:21 | 41.25269 | -9.69480 | 40816 ft | 501 kts | 89° |
| 2026-04-29 13:22 | 41.25492 | -9.60231 | 40815 ft | 500 kts | 89° |
| 2026-04-29 13:22 | 41.25707 | -9.51006 | 40814 ft | 499 kts | 89° |
| 2026-04-29 13:23 | 41.25915 | -9.41796 | 40811 ft | 498 kts | 89° |
| 2026-04-29 13:23 | 41.26114 | -9.32648 | 40814 ft | 498 kts | 89° |
| 2026-04-29 13:24 | 41.26307 | -9.23432 | 40829 ft | 500 kts | 89° |
| 2026-04-29 13:24 | 41.26494 | -9.14177 | 40820 ft | 501 kts | 89° |
| 2026-04-29 13:25 | 41.26673 | -9.04898 | 40820 ft | 500 kts | 89° |
| 2026-04-29 13:25 | 41.26927 | -8.91047 | 40819 ft | 498 kts | 90° |
| 2026-04-29 13:26 | 41.27087 | -8.81841 | 40837 ft | 498 kts | 90° |
| 2026-04-29 13:26 | 41.27239 | -8.72658 | 40826 ft | 500 kts | 90° |
| 2026-04-29 13:27 | 41.27778 | -8.63479 | 40830 ft | 499 kts | 83° |
| 2026-04-29 13:27 | 41.28737 | -8.54321 | 40827 ft | 500 kts | 84° |
| 2026-04-29 13:28 | 41.29578 | -8.45147 | 40839 ft | 500 kts | 84° |
| 2026-04-29 13:28 | 41.30480 | -8.35971 | 40834 ft | 500 kts | 84° |
| 2026-04-29 13:29 | 41.31335 | -8.26799 | 40837 ft | 500 kts | 84° |
| 2026-04-29 13:29 | 41.32203 | -8.17628 | 40827 ft | 499 kts | 84° |
| 2026-04-29 13:30 | 41.33054 | -8.08464 | 40821 ft | 499 kts | 84° |
| 2026-04-29 13:30 | 41.33898 | -7.99310 | 40829 ft | 498 kts | 84° |
| 2026-04-29 13:31 | 41.34732 | -7.90205 | 40817 ft | 500 kts | 84° |
| 2026-04-29 13:31 | 41.35565 | -7.81006 | 40817 ft | 501 kts | 84° |
| 2026-04-29 13:32 | 41.36395 | -7.71773 | 40818 ft | 502 kts | 84° |
| 2026-04-29 13:32 | 41.37215 | -7.62559 | 40816 ft | 501 kts | 84° |
| 2026-04-29 13:33 | 41.38026 | -7.53379 | 40808 ft | 498 kts | 85° |
| 2026-04-29 13:33 | 41.38825 | -7.44200 | 40806 ft | 500 kts | 85° |
| 2026-04-29 13:34 | 41.39620 | -7.35002 | 40805 ft | 501 kts | 85° |
| 2026-04-29 13:34 | 41.40410 | -7.25758 | 40807 ft | 502 kts | 85° |
| 2026-04-29 13:35 | 41.41195 | -7.16501 | 40804 ft | 501 kts | 85° |
| 2026-04-29 13:35 | 41.41962 | -7.07347 | 40801 ft | 500 kts | 85° |
| 2026-04-29 13:36 | 41.42731 | -6.98098 | 40791 ft | 499 kts | 85° |
| 2026-04-29 13:36 | 41.43481 | -6.88972 | 40796 ft | 498 kts | 85° |
| 2026-04-29 13:37 | 41.44229 | -6.79783 | 40800 ft | 499 kts | 85° |
| 2026-04-29 13:37 | 41.44972 | -6.70570 | 40806 ft | 500 kts | 85° |
| 2026-04-29 13:38 | 41.45709 | -6.61340 | 40805 ft | 501 kts | 86° |
| 2026-04-29 13:38 | 41.46437 | -6.52119 | 40806 ft | 500 kts | 86° |
| 2026-04-29 13:39 | 41.47157 | -6.42913 | 40810 ft | 499 kts | 86° |
| 2026-04-29 13:39 | 41.47869 | -6.33714 | 40811 ft | 498 kts | 86° |
| 2026-04-29 13:40 | 41.48571 | -6.24542 | 40819 ft | 497 kts | 86° |
| 2026-04-29 13:40 | 41.49265 | -6.15374 | 40819 ft | 497 kts | 86° |
| 2026-04-29 13:41 | 41.49953 | -6.06188 | 40819 ft | 498 kts | 86° |
| 2026-04-29 13:41 | 41.50636 | -5.96980 | 40825 ft | 499 kts | 86° |
| 2026-04-29 13:42 | 41.51311 | -5.87766 | 40617 ft | 497 kts | 86° |
| 2026-04-29 13:42 | 41.51645 | -5.83175 | 40005 ft | 496 kts | 86° |
| 2026-04-29 13:42 | 41.51976 | -5.78602 | 39411 ft | 495 kts | 86° |
| 2026-04-29 13:43 | 41.52304 | -5.74036 | 38832 ft | 493 kts | 87° |
| 2026-04-29 13:43 | 41.52629 | -5.69489 | 38188 ft | 492 kts | 87° |
| 2026-04-29 13:43 | 41.52841 | -5.64953 | 37484 ft | 487 kts | 94° |
| 2026-04-29 13:43 | 41.52450 | -5.60517 | 36877 ft | 478 kts | 105° |
| 2026-04-29 13:44 | 41.51670 | -5.56240 | 36330 ft | 472 kts | 107° |
| 2026-04-29 13:44 | 41.50884 | -5.51997 | 35783 ft | 468 kts | 107° |
| 2026-04-29 13:44 | 41.50155 | -5.47847 | 35251 ft | 465 kts | 106° |
| 2026-04-29 13:44 | 41.49434 | -5.43662 | 34717 ft | 461 kts | 106° |
| 2026-04-29 13:45 | 41.48695 | -5.39516 | 34191 ft | 458 kts | 107° |
| 2026-04-29 13:45 | 41.47948 | -5.35409 | 33636 ft | 454 kts | 107° |
| 2026-04-29 13:45 | 41.47213 | -5.31326 | 33063 ft | 450 kts | 107° |
| 2026-04-29 13:45 | 41.46494 | -5.27281 | 32509 ft | 446 kts | 107° |
| 2026-04-29 13:46 | 41.45779 | -5.23282 | 31986 ft | 442 kts | 107° |
| 2026-04-29 13:46 | 41.45062 | -5.19322 | 31478 ft | 437 kts | 107° |
| 2026-04-29 13:46 | 41.44351 | -5.15402 | 30977 ft | 433 kts | 107° |
| 2026-04-29 13:46 | 41.43650 | -5.11521 | 30492 ft | 429 kts | 107° |
| 2026-04-29 13:47 | 41.42955 | -5.07679 | 30011 ft | 424 kts | 107° |
| 2026-04-29 13:47 | 41.42263 | -5.03876 | 29468 ft | 420 kts | 107° |
| 2026-04-29 13:47 | 41.41576 | -5.00109 | 28950 ft | 415 kts | 107° |
| 2026-04-29 13:47 | 41.40899 | -4.96393 | 28466 ft | 410 kts | 107° |
| 2026-04-29 13:48 | 41.40227 | -4.92718 | 27994 ft | 405 kts | 108° |
| 2026-04-29 13:48 | 41.39564 | -4.89097 | 27539 ft | 400 kts | 108° |
| 2026-04-29 13:48 | 41.38907 | -4.85520 | 27080 ft | 395 kts | 108° |